<?xml version="1.0" encoding="UTF-8" standalone="no" ?>
<gpx xmlns="http://www.topografix.com/GPX/1/1" xmlns:xsi="http://www.w3.org/2001/XMLSchema-instance" xsi:schemaLocation="http://www.topografix.com/GPX/1/1 http://www.topografix.com/GPX/1/1/gpx.xsd" version="1.1" creator="VisuGPX - https://www.visugpx.com">
  <metadata>
    <name>Stevenson - Landos - Langogne</name>
    <desc><![CDATA[Etape 2 - ASVEL Ski Montagne le 20 Mai 2012]]></desc>
  </metadata>
  <trk>
    <name><![CDATA[ACTIVE LOG070818]]></name>
    <trkseg>
      <trkpt lat="44.84244" lon="3.8284">
        <ele>1090.026</ele>
        <time>2012-05-20T07:08:18Z</time>
      </trkpt>
      <trkpt lat="44.8426" lon="3.82883">
        <ele>1091.77</ele>
        <time>2012-05-20T07:08:38Z</time>
      </trkpt>
      <trkpt lat="44.84277" lon="3.82924">
        <ele>1093.059</ele>
        <time>2012-05-20T07:08:58Z</time>
      </trkpt>
      <trkpt lat="44.84285" lon="3.82948">
        <ele>1093.521</ele>
        <time>2012-05-20T07:09:09Z</time>
      </trkpt>
      <trkpt lat="44.84296" lon="3.82974">
        <ele>1094.222</ele>
        <time>2012-05-20T07:09:22Z</time>
      </trkpt>
      <trkpt lat="44.84295" lon="3.82993">
        <ele>1095.392</ele>
        <time>2012-05-20T07:12:45Z</time>
      </trkpt>
      <trkpt lat="44.84274" lon="3.82996">
        <ele>1096.549</ele>
        <time>2012-05-20T07:12:57Z</time>
      </trkpt>
      <trkpt lat="44.84269" lon="3.82996">
        <ele>1096.725</ele>
        <time>2012-05-20T07:13:00Z</time>
      </trkpt>
      <trkpt lat="44.84253" lon="3.82996">
        <ele>1096.512</ele>
        <time>2012-05-20T07:13:09Z</time>
      </trkpt>
      <trkpt lat="44.84237" lon="3.82997">
        <ele>1096.141</ele>
        <time>2012-05-20T07:13:20Z</time>
      </trkpt>
      <trkpt lat="44.8423" lon="3.82994">
        <ele>1096.524</ele>
        <time>2012-05-20T07:13:23Z</time>
      </trkpt>
      <trkpt lat="44.84208" lon="3.82987">
        <ele>1096.506</ele>
        <time>2012-05-20T07:13:36Z</time>
      </trkpt>
      <trkpt lat="44.84206" lon="3.82986">
        <ele>1097.04</ele>
        <time>2012-05-20T07:13:40Z</time>
      </trkpt>
      <trkpt lat="44.84197" lon="3.82983">
        <ele>1096.911</ele>
        <time>2012-05-20T07:13:44Z</time>
      </trkpt>
      <trkpt lat="44.84173" lon="3.82982">
        <ele>1097.38</ele>
        <time>2012-05-20T07:13:55Z</time>
      </trkpt>
      <trkpt lat="44.84148" lon="3.82993">
        <ele>1097.614</ele>
        <time>2012-05-20T07:14:10Z</time>
      </trkpt>
      <trkpt lat="44.84117" lon="3.8302">
        <ele>1098.251</ele>
        <time>2012-05-20T07:14:31Z</time>
      </trkpt>
      <trkpt lat="44.84105" lon="3.8303">
        <ele>1098.003</ele>
        <time>2012-05-20T07:14:39Z</time>
      </trkpt>
      <trkpt lat="44.84103" lon="3.83034">
        <ele>1097.633</ele>
        <time>2012-05-20T07:14:41Z</time>
      </trkpt>
      <trkpt lat="44.84071" lon="3.83066">
        <ele>1096.435</ele>
        <time>2012-05-20T07:15:03Z</time>
      </trkpt>
      <trkpt lat="44.84069" lon="3.83067">
        <ele>1096.755</ele>
        <time>2012-05-20T07:15:04Z</time>
      </trkpt>
      <trkpt lat="44.84055" lon="3.83074">
        <ele>1094.879</ele>
        <time>2012-05-20T07:15:12Z</time>
      </trkpt>
      <trkpt lat="44.84032" lon="3.831">
        <ele>1094.35</ele>
        <time>2012-05-20T07:15:30Z</time>
      </trkpt>
      <trkpt lat="44.84015" lon="3.83139">
        <ele>1095.072</ele>
        <time>2012-05-20T07:15:50Z</time>
      </trkpt>
      <trkpt lat="44.84003" lon="3.83153">
        <ele>1093.013</ele>
        <time>2012-05-20T07:16:00Z</time>
      </trkpt>
      <trkpt lat="44.84001" lon="3.83155">
        <ele>1094.352</ele>
        <time>2012-05-20T07:16:02Z</time>
      </trkpt>
      <trkpt lat="44.8399" lon="3.83166">
        <ele>1094.759</ele>
        <time>2012-05-20T07:16:10Z</time>
      </trkpt>
      <trkpt lat="44.83964" lon="3.83203">
        <ele>1094.096</ele>
        <time>2012-05-20T07:16:33Z</time>
      </trkpt>
      <trkpt lat="44.83939" lon="3.83233">
        <ele>1095.519</ele>
        <time>2012-05-20T07:16:55Z</time>
      </trkpt>
      <trkpt lat="44.83919" lon="3.83251">
        <ele>1097.364</ele>
        <time>2012-05-20T07:17:12Z</time>
      </trkpt>
      <trkpt lat="44.83894" lon="3.83274">
        <ele>1098.985</ele>
        <time>2012-05-20T07:17:35Z</time>
      </trkpt>
      <trkpt lat="44.83869" lon="3.83283">
        <ele>1100.06</ele>
        <time>2012-05-20T07:17:55Z</time>
      </trkpt>
      <trkpt lat="44.83839" lon="3.83284">
        <ele>1098.096</ele>
        <time>2012-05-20T07:18:16Z</time>
      </trkpt>
      <trkpt lat="44.83799" lon="3.83282">
        <ele>1098.108</ele>
        <time>2012-05-20T07:18:43Z</time>
      </trkpt>
      <trkpt lat="44.83768" lon="3.83284">
        <ele>1097.976</ele>
        <time>2012-05-20T07:19:05Z</time>
      </trkpt>
      <trkpt lat="44.83736" lon="3.83291">
        <ele>1099.988</ele>
        <time>2012-05-20T07:19:28Z</time>
      </trkpt>
      <trkpt lat="44.83703" lon="3.83295">
        <ele>1100.854</ele>
        <time>2012-05-20T07:19:52Z</time>
      </trkpt>
      <trkpt lat="44.83675" lon="3.833">
        <ele>1102.471</ele>
        <time>2012-05-20T07:20:12Z</time>
      </trkpt>
      <trkpt lat="44.83649" lon="3.83301">
        <ele>1103.16</ele>
        <time>2012-05-20T07:20:31Z</time>
      </trkpt>
      <trkpt lat="44.83618" lon="3.83302">
        <ele>1104.151</ele>
        <time>2012-05-20T07:20:53Z</time>
      </trkpt>
      <trkpt lat="44.83583" lon="3.83302">
        <ele>1104.872</ele>
        <time>2012-05-20T07:21:17Z</time>
      </trkpt>
      <trkpt lat="44.8357" lon="3.83302">
        <ele>1105.271</ele>
        <time>2012-05-20T07:21:34Z</time>
      </trkpt>
      <trkpt lat="44.83546" lon="3.83304">
        <ele>1103.423</ele>
        <time>2012-05-20T07:21:52Z</time>
      </trkpt>
      <trkpt lat="44.83542" lon="3.83305">
        <ele>1105.935</ele>
        <time>2012-05-20T07:21:55Z</time>
      </trkpt>
      <trkpt lat="44.83511" lon="3.83314">
        <ele>1107.888</ele>
        <time>2012-05-20T07:22:18Z</time>
      </trkpt>
      <trkpt lat="44.83484" lon="3.83303">
        <ele>1108.158</ele>
        <time>2012-05-20T07:22:39Z</time>
      </trkpt>
      <trkpt lat="44.83455" lon="3.83266">
        <ele>1109.236</ele>
        <time>2012-05-20T07:23:07Z</time>
      </trkpt>
      <trkpt lat="44.83434" lon="3.83238">
        <ele>1110.77</ele>
        <time>2012-05-20T07:23:29Z</time>
      </trkpt>
      <trkpt lat="44.83414" lon="3.83216">
        <ele>1112.544</ele>
        <time>2012-05-20T07:23:50Z</time>
      </trkpt>
      <trkpt lat="44.83405" lon="3.83204">
        <ele>1112.926</ele>
        <time>2012-05-20T07:23:59Z</time>
      </trkpt>
      <trkpt lat="44.83394" lon="3.83192">
        <ele>1113.622</ele>
        <time>2012-05-20T07:24:09Z</time>
      </trkpt>
      <trkpt lat="44.83371" lon="3.83176">
        <ele>1114.268</ele>
        <time>2012-05-20T07:24:28Z</time>
      </trkpt>
      <trkpt lat="44.83355" lon="3.83158">
        <ele>1114.51</ele>
        <time>2012-05-20T07:24:48Z</time>
      </trkpt>
      <trkpt lat="44.83344" lon="3.83146">
        <ele>1114.888</ele>
        <time>2012-05-20T07:25:00Z</time>
      </trkpt>
      <trkpt lat="44.83323" lon="3.83126">
        <ele>1116.405</ele>
        <time>2012-05-20T07:25:20Z</time>
      </trkpt>
      <trkpt lat="44.83303" lon="3.83104">
        <ele>1118.396</ele>
        <time>2012-05-20T07:25:40Z</time>
      </trkpt>
      <trkpt lat="44.83287" lon="3.83092">
        <ele>1118.638</ele>
        <time>2012-05-20T07:25:54Z</time>
      </trkpt>
      <trkpt lat="44.83263" lon="3.83076">
        <ele>1119.835</ele>
        <time>2012-05-20T07:26:14Z</time>
      </trkpt>
      <trkpt lat="44.83247" lon="3.83061">
        <ele>1120.813</ele>
        <time>2012-05-20T07:26:31Z</time>
      </trkpt>
      <trkpt lat="44.83236" lon="3.83048">
        <ele>1120.906</ele>
        <time>2012-05-20T07:26:44Z</time>
      </trkpt>
      <trkpt lat="44.83233" lon="3.83045">
        <ele>1120.863</ele>
        <time>2012-05-20T07:26:47Z</time>
      </trkpt>
      <trkpt lat="44.83226" lon="3.83035">
        <ele>1120.34</ele>
        <time>2012-05-20T07:26:56Z</time>
      </trkpt>
      <trkpt lat="44.83224" lon="3.83032">
        <ele>1120.601</ele>
        <time>2012-05-20T07:26:58Z</time>
      </trkpt>
      <trkpt lat="44.83202" lon="3.83008">
        <ele>1118.683</ele>
        <time>2012-05-20T07:27:23Z</time>
      </trkpt>
      <trkpt lat="44.83179" lon="3.82975">
        <ele>1117.183</ele>
        <time>2012-05-20T07:27:51Z</time>
      </trkpt>
      <trkpt lat="44.83158" lon="3.82952">
        <ele>1116.315</ele>
        <time>2012-05-20T07:28:14Z</time>
      </trkpt>
      <trkpt lat="44.83153" lon="3.82945">
        <ele>1115.825</ele>
        <time>2012-05-20T07:28:20Z</time>
      </trkpt>
      <trkpt lat="44.83151" lon="3.82942">
        <ele>1115.719</ele>
        <time>2012-05-20T07:28:23Z</time>
      </trkpt>
      <trkpt lat="44.83149" lon="3.8294">
        <ele>1115.76</ele>
        <time>2012-05-20T07:28:26Z</time>
      </trkpt>
      <trkpt lat="44.83143" lon="3.82929">
        <ele>1115.37</ele>
        <time>2012-05-20T07:28:34Z</time>
      </trkpt>
      <trkpt lat="44.83128" lon="3.82898">
        <ele>1114.899</ele>
        <time>2012-05-20T07:28:56Z</time>
      </trkpt>
      <trkpt lat="44.83124" lon="3.82888">
        <ele>1113.771</ele>
        <time>2012-05-20T07:29:07Z</time>
      </trkpt>
      <trkpt lat="44.8312" lon="3.82881">
        <ele>1113.789</ele>
        <time>2012-05-20T07:29:31Z</time>
      </trkpt>
      <trkpt lat="44.83102" lon="3.82838">
        <ele>1113.556</ele>
        <time>2012-05-20T07:29:57Z</time>
      </trkpt>
      <trkpt lat="44.83083" lon="3.82778">
        <ele>1112.173</ele>
        <time>2012-05-20T07:30:30Z</time>
      </trkpt>
      <trkpt lat="44.83068" lon="3.82749">
        <ele>1112.037</ele>
        <time>2012-05-20T07:30:50Z</time>
      </trkpt>
      <trkpt lat="44.83057" lon="3.82758">
        <ele>1111.213</ele>
        <time>2012-05-20T07:31:01Z</time>
      </trkpt>
      <trkpt lat="44.83051" lon="3.82763">
        <ele>1110.269</ele>
        <time>2012-05-20T07:31:07Z</time>
      </trkpt>
      <trkpt lat="44.83044" lon="3.82756">
        <ele>1109.283</ele>
        <time>2012-05-20T07:31:16Z</time>
      </trkpt>
      <trkpt lat="44.83042" lon="3.82732">
        <ele>1110.899</ele>
        <time>2012-05-20T07:31:34Z</time>
      </trkpt>
      <trkpt lat="44.83041" lon="3.82729">
        <ele>1110.73</ele>
        <time>2012-05-20T07:31:36Z</time>
      </trkpt>
      <trkpt lat="44.83038" lon="3.82711">
        <ele>1112.213</ele>
        <time>2012-05-20T07:31:51Z</time>
      </trkpt>
      <trkpt lat="44.83036" lon="3.82704">
        <ele>1112.985</ele>
        <time>2012-05-20T07:31:56Z</time>
      </trkpt>
      <trkpt lat="44.83035" lon="3.82674">
        <ele>1114.469</ele>
        <time>2012-05-20T07:32:14Z</time>
      </trkpt>
      <trkpt lat="44.83035" lon="3.82643">
        <ele>1116.205</ele>
        <time>2012-05-20T07:32:33Z</time>
      </trkpt>
      <trkpt lat="44.83035" lon="3.82637">
        <ele>1116.259</ele>
        <time>2012-05-20T07:32:37Z</time>
      </trkpt>
      <trkpt lat="44.83032" lon="3.8262">
        <ele>1116.698</ele>
        <time>2012-05-20T07:32:48Z</time>
      </trkpt>
      <trkpt lat="44.83023" lon="3.82586">
        <ele>1117.419</ele>
        <time>2012-05-20T07:33:10Z</time>
      </trkpt>
      <trkpt lat="44.83015" lon="3.82555">
        <ele>1118.259</ele>
        <time>2012-05-20T07:33:30Z</time>
      </trkpt>
      <trkpt lat="44.83012" lon="3.82538">
        <ele>1118.936</ele>
        <time>2012-05-20T07:33:41Z</time>
      </trkpt>
      <trkpt lat="44.83" lon="3.82509">
        <ele>1119.638</ele>
        <time>2012-05-20T07:34:02Z</time>
      </trkpt>
      <trkpt lat="44.82998" lon="3.82504">
        <ele>1120.3</ele>
        <time>2012-05-20T07:34:05Z</time>
      </trkpt>
      <trkpt lat="44.82997" lon="3.82503">
        <ele>1120.521</ele>
        <time>2012-05-20T07:34:07Z</time>
      </trkpt>
      <trkpt lat="44.82984" lon="3.82479">
        <ele>1120.042</ele>
        <time>2012-05-20T07:34:25Z</time>
      </trkpt>
      <trkpt lat="44.82966" lon="3.82447">
        <ele>1118.208</ele>
        <time>2012-05-20T07:34:50Z</time>
      </trkpt>
      <trkpt lat="44.82948" lon="3.82421">
        <ele>1117.454</ele>
        <time>2012-05-20T07:35:12Z</time>
      </trkpt>
      <trkpt lat="44.82929" lon="3.82394">
        <ele>1117.478</ele>
        <time>2012-05-20T07:35:35Z</time>
      </trkpt>
      <trkpt lat="44.8291" lon="3.82373">
        <ele>1116.988</ele>
        <time>2012-05-20T07:35:55Z</time>
      </trkpt>
      <trkpt lat="44.82883" lon="3.82355">
        <ele>1116.021</ele>
        <time>2012-05-20T07:36:20Z</time>
      </trkpt>
      <trkpt lat="44.82876" lon="3.82352">
        <ele>1115.149</ele>
        <time>2012-05-20T07:36:27Z</time>
      </trkpt>
      <trkpt lat="44.82856" lon="3.82344">
        <ele>1114.617</ele>
        <time>2012-05-20T07:36:44Z</time>
      </trkpt>
      <trkpt lat="44.82827" lon="3.82333">
        <ele>1112.264</ele>
        <time>2012-05-20T07:37:10Z</time>
      </trkpt>
      <trkpt lat="44.82804" lon="3.82322">
        <ele>1110.594</ele>
        <time>2012-05-20T07:37:32Z</time>
      </trkpt>
      <trkpt lat="44.82797" lon="3.82319">
        <ele>1110.619</ele>
        <time>2012-05-20T07:37:39Z</time>
      </trkpt>
      <trkpt lat="44.82772" lon="3.82306">
        <ele>1109.394</ele>
        <time>2012-05-20T07:38:01Z</time>
      </trkpt>
      <trkpt lat="44.82756" lon="3.82284">
        <ele>1109.49</ele>
        <time>2012-05-20T07:38:19Z</time>
      </trkpt>
      <trkpt lat="44.82734" lon="3.82261">
        <ele>1108.463</ele>
        <time>2012-05-20T07:38:40Z</time>
      </trkpt>
      <trkpt lat="44.8271" lon="3.82232">
        <ele>1107.971</ele>
        <time>2012-05-20T07:39:05Z</time>
      </trkpt>
      <trkpt lat="44.82691" lon="3.82192">
        <ele>1105.795</ele>
        <time>2012-05-20T07:39:31Z</time>
      </trkpt>
      <trkpt lat="44.82683" lon="3.82179">
        <ele>1105.772</ele>
        <time>2012-05-20T07:39:41Z</time>
      </trkpt>
      <trkpt lat="44.82676" lon="3.82166">
        <ele>1104.885</ele>
        <time>2012-05-20T07:39:50Z</time>
      </trkpt>
      <trkpt lat="44.82657" lon="3.82137">
        <ele>1102.655</ele>
        <time>2012-05-20T07:40:11Z</time>
      </trkpt>
      <trkpt lat="44.82645" lon="3.82125">
        <ele>1102.148</ele>
        <time>2012-05-20T07:40:22Z</time>
      </trkpt>
      <trkpt lat="44.82627" lon="3.82099">
        <ele>1100.64</ele>
        <time>2012-05-20T07:40:43Z</time>
      </trkpt>
      <trkpt lat="44.82606" lon="3.82069">
        <ele>1099.188</ele>
        <time>2012-05-20T07:41:07Z</time>
      </trkpt>
      <trkpt lat="44.82588" lon="3.82039">
        <ele>1097.137</ele>
        <time>2012-05-20T07:41:30Z</time>
      </trkpt>
      <trkpt lat="44.8257" lon="3.82018">
        <ele>1095.965</ele>
        <time>2012-05-20T07:41:49Z</time>
      </trkpt>
      <trkpt lat="44.82549" lon="3.81999">
        <ele>1094.648</ele>
        <time>2012-05-20T07:42:09Z</time>
      </trkpt>
      <trkpt lat="44.82529" lon="3.8198">
        <ele>1093.814</ele>
        <time>2012-05-20T07:42:28Z</time>
      </trkpt>
      <trkpt lat="44.82504" lon="3.81961">
        <ele>1092.739</ele>
        <time>2012-05-20T07:42:51Z</time>
      </trkpt>
      <trkpt lat="44.82478" lon="3.81944">
        <ele>1091.299</ele>
        <time>2012-05-20T07:43:14Z</time>
      </trkpt>
      <trkpt lat="44.82461" lon="3.81928">
        <ele>1091.054</ele>
        <time>2012-05-20T07:43:31Z</time>
      </trkpt>
      <trkpt lat="44.8244" lon="3.81906">
        <ele>1089.912</ele>
        <time>2012-05-20T07:43:52Z</time>
      </trkpt>
      <trkpt lat="44.82417" lon="3.81883">
        <ele>1088.394</ele>
        <time>2012-05-20T07:44:14Z</time>
      </trkpt>
      <trkpt lat="44.82394" lon="3.81861">
        <ele>1086.692</ele>
        <time>2012-05-20T07:44:35Z</time>
      </trkpt>
      <trkpt lat="44.8237" lon="3.81837">
        <ele>1084.39</ele>
        <time>2012-05-20T07:44:57Z</time>
      </trkpt>
      <trkpt lat="44.82343" lon="3.81811">
        <ele>1082.523</ele>
        <time>2012-05-20T07:45:21Z</time>
      </trkpt>
      <trkpt lat="44.82314" lon="3.8177">
        <ele>1079.927</ele>
        <time>2012-05-20T07:45:50Z</time>
      </trkpt>
      <trkpt lat="44.82298" lon="3.81738">
        <ele>1079.152</ele>
        <time>2012-05-20T07:46:11Z</time>
      </trkpt>
      <trkpt lat="44.82277" lon="3.81693">
        <ele>1076.083</ele>
        <time>2012-05-20T07:46:40Z</time>
      </trkpt>
      <trkpt lat="44.82259" lon="3.81655">
        <ele>1074.408</ele>
        <time>2012-05-20T07:47:03Z</time>
      </trkpt>
      <trkpt lat="44.82247" lon="3.81624">
        <ele>1073.059</ele>
        <time>2012-05-20T07:47:22Z</time>
      </trkpt>
      <trkpt lat="44.82236" lon="3.81589">
        <ele>1071.748</ele>
        <time>2012-05-20T07:47:42Z</time>
      </trkpt>
      <trkpt lat="44.82223" lon="3.81561">
        <ele>1070.512</ele>
        <time>2012-05-20T07:48:01Z</time>
      </trkpt>
      <trkpt lat="44.82213" lon="3.81525">
        <ele>1068.952</ele>
        <time>2012-05-20T07:48:22Z</time>
      </trkpt>
      <trkpt lat="44.82207" lon="3.81502">
        <ele>1067.845</ele>
        <time>2012-05-20T07:48:37Z</time>
      </trkpt>
      <trkpt lat="44.82201" lon="3.81472">
        <ele>1067.097</ele>
        <time>2012-05-20T07:48:54Z</time>
      </trkpt>
      <trkpt lat="44.82198" lon="3.81458">
        <ele>1066.256</ele>
        <time>2012-05-20T07:49:02Z</time>
      </trkpt>
      <trkpt lat="44.82193" lon="3.81426">
        <ele>1065.196</ele>
        <time>2012-05-20T07:49:21Z</time>
      </trkpt>
      <trkpt lat="44.8218" lon="3.81384">
        <ele>1062.585</ele>
        <time>2012-05-20T07:49:46Z</time>
      </trkpt>
      <trkpt lat="44.82162" lon="3.81352">
        <ele>1061.026</ele>
        <time>2012-05-20T07:50:08Z</time>
      </trkpt>
      <trkpt lat="44.82154" lon="3.81316">
        <ele>1059.174</ele>
        <time>2012-05-20T07:50:28Z</time>
      </trkpt>
      <trkpt lat="44.8215" lon="3.81285">
        <ele>1056.594</ele>
        <time>2012-05-20T07:50:46Z</time>
      </trkpt>
      <trkpt lat="44.82142" lon="3.81258">
        <ele>1054.293</ele>
        <time>2012-05-20T07:51:02Z</time>
      </trkpt>
      <trkpt lat="44.82131" lon="3.81232">
        <ele>1052.697</ele>
        <time>2012-05-20T07:51:20Z</time>
      </trkpt>
      <trkpt lat="44.82121" lon="3.81201">
        <ele>1051.387</ele>
        <time>2012-05-20T07:51:39Z</time>
      </trkpt>
      <trkpt lat="44.82119" lon="3.81196">
        <ele>1051.08</ele>
        <time>2012-05-20T07:51:43Z</time>
      </trkpt>
      <trkpt lat="44.82114" lon="3.81193">
        <ele>1050.358</ele>
        <time>2012-05-20T07:51:48Z</time>
      </trkpt>
      <trkpt lat="44.8211" lon="3.81197">
        <ele>1050.878</ele>
        <time>2012-05-20T07:51:52Z</time>
      </trkpt>
      <trkpt lat="44.82092" lon="3.81208">
        <ele>1050.695</ele>
        <time>2012-05-20T07:52:08Z</time>
      </trkpt>
      <trkpt lat="44.82074" lon="3.81212">
        <ele>1050.476</ele>
        <time>2012-05-20T07:52:23Z</time>
      </trkpt>
      <trkpt lat="44.82051" lon="3.81212">
        <ele>1050.12</ele>
        <time>2012-05-20T07:52:42Z</time>
      </trkpt>
      <trkpt lat="44.82034" lon="3.81207">
        <ele>1049.388</ele>
        <time>2012-05-20T07:52:56Z</time>
      </trkpt>
      <trkpt lat="44.82021" lon="3.81199">
        <ele>1049.231</ele>
        <time>2012-05-20T07:53:11Z</time>
      </trkpt>
      <trkpt lat="44.82017" lon="3.81196">
        <ele>1048.992</ele>
        <time>2012-05-20T07:53:15Z</time>
      </trkpt>
      <trkpt lat="44.81991" lon="3.81168">
        <ele>1048.125</ele>
        <time>2012-05-20T07:53:41Z</time>
      </trkpt>
      <trkpt lat="44.81972" lon="3.81151">
        <ele>1047.504</ele>
        <time>2012-05-20T07:53:58Z</time>
      </trkpt>
      <trkpt lat="44.81957" lon="3.81138">
        <ele>1047.653</ele>
        <time>2012-05-20T07:54:11Z</time>
      </trkpt>
      <trkpt lat="44.81937" lon="3.81129">
        <ele>1047.734</ele>
        <time>2012-05-20T07:54:27Z</time>
      </trkpt>
      <trkpt lat="44.81913" lon="3.81138">
        <ele>1048.08</ele>
        <time>2012-05-20T07:54:47Z</time>
      </trkpt>
      <trkpt lat="44.81893" lon="3.81151">
        <ele>1047.552</ele>
        <time>2012-05-20T07:55:04Z</time>
      </trkpt>
      <trkpt lat="44.81889" lon="3.81154">
        <ele>1047.435</ele>
        <time>2012-05-20T07:55:08Z</time>
      </trkpt>
      <trkpt lat="44.81858" lon="3.81174">
        <ele>1046.517</ele>
        <time>2012-05-20T07:55:34Z</time>
      </trkpt>
      <trkpt lat="44.81837" lon="3.81186">
        <ele>1046.152</ele>
        <time>2012-05-20T07:55:50Z</time>
      </trkpt>
      <trkpt lat="44.81828" lon="3.81193">
        <ele>1045.98</ele>
        <time>2012-05-20T07:56:02Z</time>
      </trkpt>
      <trkpt lat="44.81826" lon="3.81198">
        <ele>1046.309</ele>
        <time>2012-05-20T07:56:06Z</time>
      </trkpt>
      <trkpt lat="44.81825" lon="3.81204">
        <ele>1046.071</ele>
        <time>2012-05-20T07:56:10Z</time>
      </trkpt>
      <trkpt lat="44.81838" lon="3.8123">
        <ele>1044.724</ele>
        <time>2012-05-20T07:56:29Z</time>
      </trkpt>
      <trkpt lat="44.81853" lon="3.81253">
        <ele>1042.201</ele>
        <time>2012-05-20T07:56:49Z</time>
      </trkpt>
      <trkpt lat="44.81866" lon="3.81284">
        <ele>1039.158</ele>
        <time>2012-05-20T07:57:09Z</time>
      </trkpt>
      <trkpt lat="44.81868" lon="3.8129">
        <ele>1038.916</ele>
        <time>2012-05-20T07:57:13Z</time>
      </trkpt>
      <trkpt lat="44.8187" lon="3.81297">
        <ele>1038.945</ele>
        <time>2012-05-20T07:57:17Z</time>
      </trkpt>
      <trkpt lat="44.81878" lon="3.81313">
        <ele>1038.123</ele>
        <time>2012-05-20T07:57:28Z</time>
      </trkpt>
      <trkpt lat="44.81884" lon="3.81334">
        <ele>1036.231</ele>
        <time>2012-05-20T07:57:42Z</time>
      </trkpt>
      <trkpt lat="44.81892" lon="3.81362">
        <ele>1035.103</ele>
        <time>2012-05-20T07:57:58Z</time>
      </trkpt>
      <trkpt lat="44.81894" lon="3.81369">
        <ele>1034.279</ele>
        <time>2012-05-20T07:58:03Z</time>
      </trkpt>
      <trkpt lat="44.81898" lon="3.81397">
        <ele>1033.308</ele>
        <time>2012-05-20T07:58:20Z</time>
      </trkpt>
      <trkpt lat="44.81898" lon="3.814">
        <ele>1032.922</ele>
        <time>2012-05-20T07:58:22Z</time>
      </trkpt>
      <trkpt lat="44.81899" lon="3.81421">
        <ele>1033.199</ele>
        <time>2012-05-20T07:58:35Z</time>
      </trkpt>
      <trkpt lat="44.81897" lon="3.8145">
        <ele>1032.508</ele>
        <time>2012-05-20T07:58:50Z</time>
      </trkpt>
      <trkpt lat="44.81896" lon="3.81454">
        <ele>1030.709</ele>
        <time>2012-05-20T07:58:53Z</time>
      </trkpt>
      <trkpt lat="44.81895" lon="3.81456">
        <ele>1032.806</ele>
        <time>2012-05-20T07:58:54Z</time>
      </trkpt>
      <trkpt lat="44.81893" lon="3.81461">
        <ele>1031.548</ele>
        <time>2012-05-20T07:58:57Z</time>
      </trkpt>
      <trkpt lat="44.8189" lon="3.81469">
        <ele>1030.664</ele>
        <time>2012-05-20T07:59:04Z</time>
      </trkpt>
      <trkpt lat="44.81872" lon="3.81498">
        <ele>1027.564</ele>
        <time>2012-05-20T07:59:24Z</time>
      </trkpt>
      <trkpt lat="44.81859" lon="3.81521">
        <ele>1024.393</ele>
        <time>2012-05-20T07:59:41Z</time>
      </trkpt>
      <trkpt lat="44.81848" lon="3.81545">
        <ele>1023.831</ele>
        <time>2012-05-20T07:59:57Z</time>
      </trkpt>
      <trkpt lat="44.81842" lon="3.81554">
        <ele>1023.659</ele>
        <time>2012-05-20T08:00:03Z</time>
      </trkpt>
      <trkpt lat="44.81831" lon="3.81575">
        <ele>1024.207</ele>
        <time>2012-05-20T08:00:18Z</time>
      </trkpt>
      <trkpt lat="44.8182" lon="3.81577">
        <ele>1024.787</ele>
        <time>2012-05-20T08:00:27Z</time>
      </trkpt>
      <trkpt lat="44.81817" lon="3.81576">
        <ele>1025.31</ele>
        <time>2012-05-20T08:00:30Z</time>
      </trkpt>
      <trkpt lat="44.81803" lon="3.8157">
        <ele>1026.557</ele>
        <time>2012-05-20T08:00:42Z</time>
      </trkpt>
      <trkpt lat="44.81802" lon="3.8157">
        <ele>1026.688</ele>
        <time>2012-05-20T08:00:43Z</time>
      </trkpt>
      <trkpt lat="44.81792" lon="3.81564">
        <ele>1027.431</ele>
        <time>2012-05-20T08:00:53Z</time>
      </trkpt>
      <trkpt lat="44.81788" lon="3.8156">
        <ele>1028.296</ele>
        <time>2012-05-20T08:00:57Z</time>
      </trkpt>
      <trkpt lat="44.81785" lon="3.81558">
        <ele>1028.018</ele>
        <time>2012-05-20T08:01:00Z</time>
      </trkpt>
      <trkpt lat="44.81781" lon="3.81553">
        <ele>1029.129</ele>
        <time>2012-05-20T08:01:04Z</time>
      </trkpt>
      <trkpt lat="44.81778" lon="3.81548">
        <ele>1029.175</ele>
        <time>2012-05-20T08:01:08Z</time>
      </trkpt>
      <trkpt lat="44.81775" lon="3.81548">
        <ele>1029.879</ele>
        <time>2012-05-20T08:01:10Z</time>
      </trkpt>
      <trkpt lat="44.81771" lon="3.81544">
        <ele>1030.914</ele>
        <time>2012-05-20T08:01:15Z</time>
      </trkpt>
      <trkpt lat="44.81761" lon="3.81535">
        <ele>1032.705</ele>
        <time>2012-05-20T08:01:27Z</time>
      </trkpt>
      <trkpt lat="44.8175" lon="3.8153">
        <ele>1034.071</ele>
        <time>2012-05-20T08:01:38Z</time>
      </trkpt>
      <trkpt lat="44.8174" lon="3.81523">
        <ele>1035.616</ele>
        <time>2012-05-20T08:01:49Z</time>
      </trkpt>
      <trkpt lat="44.81736" lon="3.81519">
        <ele>1036.901</ele>
        <time>2012-05-20T08:01:53Z</time>
      </trkpt>
      <trkpt lat="44.81726" lon="3.81506">
        <ele>1038.271</ele>
        <time>2012-05-20T08:02:06Z</time>
      </trkpt>
      <trkpt lat="44.81716" lon="3.81498">
        <ele>1039.811</ele>
        <time>2012-05-20T08:02:18Z</time>
      </trkpt>
      <trkpt lat="44.81708" lon="3.81492">
        <ele>1041.06</ele>
        <time>2012-05-20T08:02:27Z</time>
      </trkpt>
      <trkpt lat="44.817" lon="3.81485">
        <ele>1041.688</ele>
        <time>2012-05-20T08:02:35Z</time>
      </trkpt>
      <trkpt lat="44.81696" lon="3.81482">
        <ele>1042.466</ele>
        <time>2012-05-20T08:02:39Z</time>
      </trkpt>
      <trkpt lat="44.81683" lon="3.81473">
        <ele>1043.797</ele>
        <time>2012-05-20T08:02:52Z</time>
      </trkpt>
      <trkpt lat="44.81681" lon="3.81472">
        <ele>1044.141</ele>
        <time>2012-05-20T08:02:55Z</time>
      </trkpt>
      <trkpt lat="44.81674" lon="3.81468">
        <ele>1045.334</ele>
        <time>2012-05-20T08:03:10Z</time>
      </trkpt>
      <trkpt lat="44.81666" lon="3.81459">
        <ele>1045.333</ele>
        <time>2012-05-20T08:03:23Z</time>
      </trkpt>
      <trkpt lat="44.81664" lon="3.81457">
        <ele>1045.552</ele>
        <time>2012-05-20T08:03:26Z</time>
      </trkpt>
      <trkpt lat="44.81653" lon="3.81444">
        <ele>1045.59</ele>
        <time>2012-05-20T08:03:38Z</time>
      </trkpt>
      <trkpt lat="44.81638" lon="3.81439">
        <ele>1045.555</ele>
        <time>2012-05-20T08:03:53Z</time>
      </trkpt>
      <trkpt lat="44.81625" lon="3.81439">
        <ele>1046.471</ele>
        <time>2012-05-20T08:04:05Z</time>
      </trkpt>
      <trkpt lat="44.81614" lon="3.81441">
        <ele>1046.583</ele>
        <time>2012-05-20T08:04:13Z</time>
      </trkpt>
      <trkpt lat="44.81611" lon="3.81441">
        <ele>1046.755</ele>
        <time>2012-05-20T08:04:16Z</time>
      </trkpt>
      <trkpt lat="44.81607" lon="3.81443">
        <ele>1047.352</ele>
        <time>2012-05-20T08:04:19Z</time>
      </trkpt>
      <trkpt lat="44.81602" lon="3.81443">
        <ele>1046.558</ele>
        <time>2012-05-20T08:04:23Z</time>
      </trkpt>
      <trkpt lat="44.8158" lon="3.81446">
        <ele>1047.021</ele>
        <time>2012-05-20T08:04:42Z</time>
      </trkpt>
      <trkpt lat="44.81556" lon="3.81449">
        <ele>1046.566</ele>
        <time>2012-05-20T08:05:02Z</time>
      </trkpt>
      <trkpt lat="44.81533" lon="3.81447">
        <ele>1046.659</ele>
        <time>2012-05-20T08:05:22Z</time>
      </trkpt>
      <trkpt lat="44.81513" lon="3.81447">
        <ele>1045.955</ele>
        <time>2012-05-20T08:05:38Z</time>
      </trkpt>
      <trkpt lat="44.81494" lon="3.81451">
        <ele>1045.979</ele>
        <time>2012-05-20T08:05:55Z</time>
      </trkpt>
      <trkpt lat="44.81477" lon="3.81461">
        <ele>1046.347</ele>
        <time>2012-05-20T08:06:11Z</time>
      </trkpt>
      <trkpt lat="44.81462" lon="3.8147">
        <ele>1046.417</ele>
        <time>2012-05-20T08:06:25Z</time>
      </trkpt>
      <trkpt lat="44.81439" lon="3.81475">
        <ele>1045.954</ele>
        <time>2012-05-20T08:06:44Z</time>
      </trkpt>
      <trkpt lat="44.8142" lon="3.81473">
        <ele>1045.77</ele>
        <time>2012-05-20T08:07:01Z</time>
      </trkpt>
      <trkpt lat="44.81404" lon="3.81497">
        <ele>1046.172</ele>
        <time>2012-05-20T08:07:20Z</time>
      </trkpt>
      <trkpt lat="44.81387" lon="3.81522">
        <ele>1046.235</ele>
        <time>2012-05-20T08:07:42Z</time>
      </trkpt>
      <trkpt lat="44.81369" lon="3.81548">
        <ele>1046.308</ele>
        <time>2012-05-20T08:08:03Z</time>
      </trkpt>
      <trkpt lat="44.81359" lon="3.81562">
        <ele>1046.456</ele>
        <time>2012-05-20T08:08:15Z</time>
      </trkpt>
      <trkpt lat="44.8135" lon="3.81579">
        <ele>1046.689</ele>
        <time>2012-05-20T08:08:28Z</time>
      </trkpt>
      <trkpt lat="44.81331" lon="3.81608">
        <ele>1046.913</ele>
        <time>2012-05-20T08:08:51Z</time>
      </trkpt>
      <trkpt lat="44.81311" lon="3.81632">
        <ele>1046.776</ele>
        <time>2012-05-20T08:09:14Z</time>
      </trkpt>
      <trkpt lat="44.81293" lon="3.81641">
        <ele>1046.857</ele>
        <time>2012-05-20T08:09:30Z</time>
      </trkpt>
      <trkpt lat="44.81272" lon="3.81647">
        <ele>1046.893</ele>
        <time>2012-05-20T08:09:49Z</time>
      </trkpt>
      <trkpt lat="44.81248" lon="3.81666">
        <ele>1045.668</ele>
        <time>2012-05-20T08:10:12Z</time>
      </trkpt>
      <trkpt lat="44.81229" lon="3.81696">
        <ele>1045.449</ele>
        <time>2012-05-20T08:10:36Z</time>
      </trkpt>
      <trkpt lat="44.81212" lon="3.81726">
        <ele>1044.998</ele>
        <time>2012-05-20T08:10:59Z</time>
      </trkpt>
      <trkpt lat="44.81193" lon="3.81755">
        <ele>1044.208</ele>
        <time>2012-05-20T08:11:22Z</time>
      </trkpt>
      <trkpt lat="44.81173" lon="3.8175">
        <ele>1043.532</ele>
        <time>2012-05-20T08:11:41Z</time>
      </trkpt>
      <trkpt lat="44.81154" lon="3.81729">
        <ele>1042.637</ele>
        <time>2012-05-20T08:12:02Z</time>
      </trkpt>
      <trkpt lat="44.81139" lon="3.81742">
        <ele>1041.546</ele>
        <time>2012-05-20T08:12:18Z</time>
      </trkpt>
      <trkpt lat="44.81122" lon="3.81776">
        <ele>1041.146</ele>
        <time>2012-05-20T08:12:42Z</time>
      </trkpt>
      <trkpt lat="44.81107" lon="3.8181">
        <ele>1041.442</ele>
        <time>2012-05-20T08:13:05Z</time>
      </trkpt>
      <trkpt lat="44.81086" lon="3.81851">
        <ele>1041.266</ele>
        <time>2012-05-20T08:13:34Z</time>
      </trkpt>
      <trkpt lat="44.81069" lon="3.8188">
        <ele>1041.804</ele>
        <time>2012-05-20T08:13:56Z</time>
      </trkpt>
      <trkpt lat="44.81052" lon="3.81925">
        <ele>1041.716</ele>
        <time>2012-05-20T08:14:25Z</time>
      </trkpt>
      <trkpt lat="44.81034" lon="3.81966">
        <ele>1040.425</ele>
        <time>2012-05-20T08:14:53Z</time>
      </trkpt>
      <trkpt lat="44.81015" lon="3.82001">
        <ele>1039.376</ele>
        <time>2012-05-20T08:15:20Z</time>
      </trkpt>
      <trkpt lat="44.8101" lon="3.82009">
        <ele>1038.719</ele>
        <time>2012-05-20T08:15:33Z</time>
      </trkpt>
      <trkpt lat="44.80991" lon="3.8205">
        <ele>1037.024</ele>
        <time>2012-05-20T08:15:59Z</time>
      </trkpt>
      <trkpt lat="44.80973" lon="3.82093">
        <ele>1034.313</ele>
        <time>2012-05-20T08:16:25Z</time>
      </trkpt>
      <trkpt lat="44.8096" lon="3.82125">
        <ele>1031.196</ele>
        <time>2012-05-20T08:16:44Z</time>
      </trkpt>
      <trkpt lat="44.80942" lon="3.82171">
        <ele>1028.601</ele>
        <time>2012-05-20T08:17:12Z</time>
      </trkpt>
      <trkpt lat="44.80927" lon="3.82205">
        <ele>1026.406</ele>
        <time>2012-05-20T08:17:34Z</time>
      </trkpt>
      <trkpt lat="44.80908" lon="3.8224">
        <ele>1024.092</ele>
        <time>2012-05-20T08:17:59Z</time>
      </trkpt>
      <trkpt lat="44.80903" lon="3.82269">
        <ele>1023.191</ele>
        <time>2012-05-20T08:18:16Z</time>
      </trkpt>
      <trkpt lat="44.80902" lon="3.82317">
        <ele>1023.922</ele>
        <time>2012-05-20T08:18:42Z</time>
      </trkpt>
      <trkpt lat="44.80882" lon="3.82335">
        <ele>1024.435</ele>
        <time>2012-05-20T08:19:02Z</time>
      </trkpt>
      <trkpt lat="44.80857" lon="3.82338">
        <ele>1023.291</ele>
        <time>2012-05-20T08:19:21Z</time>
      </trkpt>
      <trkpt lat="44.80834" lon="3.82342">
        <ele>1022.049</ele>
        <time>2012-05-20T08:19:40Z</time>
      </trkpt>
      <trkpt lat="44.80824" lon="3.82346">
        <ele>1021.995</ele>
        <time>2012-05-20T08:19:50Z</time>
      </trkpt>
      <trkpt lat="44.80821" lon="3.82345">
        <ele>1021.859</ele>
        <time>2012-05-20T08:20:07Z</time>
      </trkpt>
      <trkpt lat="44.80814" lon="3.82345">
        <ele>1020.69</ele>
        <time>2012-05-20T08:20:21Z</time>
      </trkpt>
      <trkpt lat="44.8079" lon="3.82346">
        <ele>1019.766</ele>
        <time>2012-05-20T08:20:38Z</time>
      </trkpt>
      <trkpt lat="44.80766" lon="3.82345">
        <ele>1017.768</ele>
        <time>2012-05-20T08:20:56Z</time>
      </trkpt>
      <trkpt lat="44.80743" lon="3.82346">
        <ele>1016.476</ele>
        <time>2012-05-20T08:21:17Z</time>
      </trkpt>
      <trkpt lat="44.8074" lon="3.82344">
        <ele>1016.049</ele>
        <time>2012-05-20T08:21:30Z</time>
      </trkpt>
      <trkpt lat="44.8072" lon="3.82361">
        <ele>1013.954</ele>
        <time>2012-05-20T08:21:48Z</time>
      </trkpt>
      <trkpt lat="44.80699" lon="3.82376">
        <ele>1011.83</ele>
        <time>2012-05-20T08:22:07Z</time>
      </trkpt>
      <trkpt lat="44.80695" lon="3.82379">
        <ele>1011.463</ele>
        <time>2012-05-20T08:22:10Z</time>
      </trkpt>
      <trkpt lat="44.80692" lon="3.82384">
        <ele>1011.376</ele>
        <time>2012-05-20T08:22:16Z</time>
      </trkpt>
      <trkpt lat="44.80689" lon="3.82388">
        <ele>1010.492</ele>
        <time>2012-05-20T08:22:43Z</time>
      </trkpt>
      <trkpt lat="44.8069" lon="3.8239">
        <ele>1010.641</ele>
        <time>2012-05-20T08:22:45Z</time>
      </trkpt>
      <trkpt lat="44.80689" lon="3.82427">
        <ele>1009.002</ele>
        <time>2012-05-20T08:23:04Z</time>
      </trkpt>
      <trkpt lat="44.80688" lon="3.82461">
        <ele>1007.958</ele>
        <time>2012-05-20T08:23:23Z</time>
      </trkpt>
      <trkpt lat="44.80684" lon="3.82498">
        <ele>1006.252</ele>
        <time>2012-05-20T08:23:43Z</time>
      </trkpt>
      <trkpt lat="44.80678" lon="3.82527">
        <ele>1004.6</ele>
        <time>2012-05-20T08:24:01Z</time>
      </trkpt>
      <trkpt lat="44.80678" lon="3.82567">
        <ele>1002.035</ele>
        <time>2012-05-20T08:24:22Z</time>
      </trkpt>
      <trkpt lat="44.80679" lon="3.82588">
        <ele>1000.928</ele>
        <time>2012-05-20T08:24:57Z</time>
      </trkpt>
      <trkpt lat="44.80683" lon="3.826">
        <ele>1000.194</ele>
        <time>2012-05-20T08:25:07Z</time>
      </trkpt>
      <trkpt lat="44.80688" lon="3.82605">
        <ele>999.873</ele>
        <time>2012-05-20T08:25:11Z</time>
      </trkpt>
      <trkpt lat="44.80694" lon="3.82615">
        <ele>999.481</ele>
        <time>2012-05-20T08:25:18Z</time>
      </trkpt>
      <trkpt lat="44.8072" lon="3.82642">
        <ele>996.461</ele>
        <time>2012-05-20T08:25:41Z</time>
      </trkpt>
      <trkpt lat="44.80738" lon="3.82669">
        <ele>993.65</ele>
        <time>2012-05-20T08:26:02Z</time>
      </trkpt>
      <trkpt lat="44.8074" lon="3.82671">
        <ele>993.611</ele>
        <time>2012-05-20T08:26:04Z</time>
      </trkpt>
      <trkpt lat="44.80746" lon="3.82703">
        <ele>990.386</ele>
        <time>2012-05-20T08:26:25Z</time>
      </trkpt>
      <trkpt lat="44.80754" lon="3.8274">
        <ele>987.596</ele>
        <time>2012-05-20T08:26:48Z</time>
      </trkpt>
      <trkpt lat="44.80754" lon="3.8277">
        <ele>984.867</ele>
        <time>2012-05-20T08:27:08Z</time>
      </trkpt>
      <trkpt lat="44.80752" lon="3.82775">
        <ele>984.361</ele>
        <time>2012-05-20T08:27:12Z</time>
      </trkpt>
      <trkpt lat="44.80736" lon="3.8279">
        <ele>982.551</ele>
        <time>2012-05-20T08:27:26Z</time>
      </trkpt>
      <trkpt lat="44.80732" lon="3.82791">
        <ele>982.223</ele>
        <time>2012-05-20T08:27:29Z</time>
      </trkpt>
      <trkpt lat="44.80722" lon="3.82789">
        <ele>982.175</ele>
        <time>2012-05-20T08:27:40Z</time>
      </trkpt>
      <trkpt lat="44.80718" lon="3.82789">
        <ele>981.989</ele>
        <time>2012-05-20T08:27:43Z</time>
      </trkpt>
      <trkpt lat="44.80715" lon="3.8279">
        <ele>982.064</ele>
        <time>2012-05-20T08:27:45Z</time>
      </trkpt>
      <trkpt lat="44.80713" lon="3.82787">
        <ele>981.919</ele>
        <time>2012-05-20T08:27:48Z</time>
      </trkpt>
      <trkpt lat="44.80701" lon="3.82785">
        <ele>982.492</ele>
        <time>2012-05-20T08:28:01Z</time>
      </trkpt>
      <trkpt lat="44.80691" lon="3.82779">
        <ele>982.532</ele>
        <time>2012-05-20T08:28:18Z</time>
      </trkpt>
      <trkpt lat="44.80678" lon="3.82774">
        <ele>982.874</ele>
        <time>2012-05-20T08:28:27Z</time>
      </trkpt>
      <trkpt lat="44.80676" lon="3.8277">
        <ele>983.188</ele>
        <time>2012-05-20T08:28:31Z</time>
      </trkpt>
      <trkpt lat="44.80667" lon="3.82756">
        <ele>983.595</ele>
        <time>2012-05-20T08:28:46Z</time>
      </trkpt>
      <trkpt lat="44.80655" lon="3.8275">
        <ele>984.006</ele>
        <time>2012-05-20T08:29:00Z</time>
      </trkpt>
      <trkpt lat="44.8065" lon="3.82748">
        <ele>984.409</ele>
        <time>2012-05-20T08:29:06Z</time>
      </trkpt>
      <trkpt lat="44.80638" lon="3.82748">
        <ele>985.169</ele>
        <time>2012-05-20T08:29:18Z</time>
      </trkpt>
      <trkpt lat="44.80625" lon="3.82748">
        <ele>987.282</ele>
        <time>2012-05-20T08:29:33Z</time>
      </trkpt>
      <trkpt lat="44.80613" lon="3.82747">
        <ele>988.086</ele>
        <time>2012-05-20T08:29:46Z</time>
      </trkpt>
      <trkpt lat="44.8061" lon="3.82748">
        <ele>988.32</ele>
        <time>2012-05-20T08:29:50Z</time>
      </trkpt>
      <trkpt lat="44.80592" lon="3.82746">
        <ele>990.962</ele>
        <time>2012-05-20T08:30:08Z</time>
      </trkpt>
      <trkpt lat="44.80577" lon="3.82749">
        <ele>992.665</ele>
        <time>2012-05-20T08:30:22Z</time>
      </trkpt>
      <trkpt lat="44.80568" lon="3.82753">
        <ele>994.683</ele>
        <time>2012-05-20T08:30:35Z</time>
      </trkpt>
      <trkpt lat="44.80566" lon="3.82754">
        <ele>994.69</ele>
        <time>2012-05-20T08:30:38Z</time>
      </trkpt>
      <trkpt lat="44.80553" lon="3.82764">
        <ele>997.788</ele>
        <time>2012-05-20T08:30:56Z</time>
      </trkpt>
      <trkpt lat="44.80536" lon="3.8277">
        <ele>999.989</ele>
        <time>2012-05-20T08:31:15Z</time>
      </trkpt>
      <trkpt lat="44.80528" lon="3.82771">
        <ele>1000.84</ele>
        <time>2012-05-20T08:31:23Z</time>
      </trkpt>
      <trkpt lat="44.80517" lon="3.82775">
        <ele>1002.323</ele>
        <time>2012-05-20T08:31:35Z</time>
      </trkpt>
      <trkpt lat="44.80505" lon="3.82777">
        <ele>1004.386</ele>
        <time>2012-05-20T08:31:47Z</time>
      </trkpt>
      <trkpt lat="44.80499" lon="3.82777">
        <ele>1004.977</ele>
        <time>2012-05-20T08:31:53Z</time>
      </trkpt>
      <trkpt lat="44.80489" lon="3.8278">
        <ele>1005.84</ele>
        <time>2012-05-20T08:32:02Z</time>
      </trkpt>
      <trkpt lat="44.8048" lon="3.82786">
        <ele>1006.833</ele>
        <time>2012-05-20T08:32:12Z</time>
      </trkpt>
      <trkpt lat="44.80475" lon="3.82789">
        <ele>1007.64</ele>
        <time>2012-05-20T08:32:17Z</time>
      </trkpt>
      <trkpt lat="44.8047" lon="3.82789">
        <ele>1008.093</ele>
        <time>2012-05-20T08:32:22Z</time>
      </trkpt>
      <trkpt lat="44.80452" lon="3.82811">
        <ele>1009.349</ele>
        <time>2012-05-20T08:32:42Z</time>
      </trkpt>
      <trkpt lat="44.80442" lon="3.82818">
        <ele>1010.541</ele>
        <time>2012-05-20T08:32:52Z</time>
      </trkpt>
      <trkpt lat="44.8044" lon="3.82819">
        <ele>1010.537</ele>
        <time>2012-05-20T08:32:55Z</time>
      </trkpt>
      <trkpt lat="44.80434" lon="3.82824">
        <ele>1011.167</ele>
        <time>2012-05-20T08:33:01Z</time>
      </trkpt>
      <trkpt lat="44.80433" lon="3.82826">
        <ele>1011.115</ele>
        <time>2012-05-20T08:33:03Z</time>
      </trkpt>
      <trkpt lat="44.80431" lon="3.82831">
        <ele>1010.988</ele>
        <time>2012-05-20T08:33:07Z</time>
      </trkpt>
      <trkpt lat="44.80426" lon="3.82854">
        <ele>1012.508</ele>
        <time>2012-05-20T08:33:24Z</time>
      </trkpt>
      <trkpt lat="44.8042" lon="3.82865">
        <ele>1013.024</ele>
        <time>2012-05-20T08:33:45Z</time>
      </trkpt>
      <trkpt lat="44.80414" lon="3.82873">
        <ele>1013.632</ele>
        <time>2012-05-20T08:34:06Z</time>
      </trkpt>
      <trkpt lat="44.80402" lon="3.82883">
        <ele>1014.532</ele>
        <time>2012-05-20T08:34:24Z</time>
      </trkpt>
      <trkpt lat="44.80396" lon="3.8289">
        <ele>1014.803</ele>
        <time>2012-05-20T08:34:50Z</time>
      </trkpt>
      <trkpt lat="44.8038" lon="3.82903">
        <ele>1016.035</ele>
        <time>2012-05-20T08:35:09Z</time>
      </trkpt>
      <trkpt lat="44.80379" lon="3.82907">
        <ele>1016.417</ele>
        <time>2012-05-20T08:35:23Z</time>
      </trkpt>
      <trkpt lat="44.80373" lon="3.82912">
        <ele>1016.514</ele>
        <time>2012-05-20T08:35:54Z</time>
      </trkpt>
      <trkpt lat="44.80369" lon="3.82917">
        <ele>1016.781</ele>
        <time>2012-05-20T08:35:59Z</time>
      </trkpt>
      <trkpt lat="44.80349" lon="3.82944">
        <ele>1019.617</ele>
        <time>2012-05-20T08:36:23Z</time>
      </trkpt>
      <trkpt lat="44.80338" lon="3.82957">
        <ele>1020.369</ele>
        <time>2012-05-20T08:36:35Z</time>
      </trkpt>
      <trkpt lat="44.80332" lon="3.82993">
        <ele>1021.955</ele>
        <time>2012-05-20T08:36:58Z</time>
      </trkpt>
      <trkpt lat="44.80332" lon="3.83012">
        <ele>1022.738</ele>
        <time>2012-05-20T08:37:16Z</time>
      </trkpt>
      <trkpt lat="44.80331" lon="3.83017">
        <ele>1023.307</ele>
        <time>2012-05-20T08:37:28Z</time>
      </trkpt>
      <trkpt lat="44.80331" lon="3.83021">
        <ele>1023.778</ele>
        <time>2012-05-20T08:37:42Z</time>
      </trkpt>
      <trkpt lat="44.8033" lon="3.83024">
        <ele>1024.271</ele>
        <time>2012-05-20T08:37:59Z</time>
      </trkpt>
      <trkpt lat="44.80331" lon="3.83026">
        <ele>1023.687</ele>
        <time>2012-05-20T08:38:57Z</time>
      </trkpt>
      <trkpt lat="44.80333" lon="3.83029">
        <ele>1024.557</ele>
        <time>2012-05-20T08:40:09Z</time>
      </trkpt>
      <trkpt lat="44.80336" lon="3.83025">
        <ele>1025.187</ele>
        <time>2012-05-20T08:43:36Z</time>
      </trkpt>
      <trkpt lat="44.80339" lon="3.83025">
        <ele>1025.238</ele>
        <time>2012-05-20T08:44:02Z</time>
      </trkpt>
      <trkpt lat="44.80357" lon="3.83022">
        <ele>1025.798</ele>
        <time>2012-05-20T08:44:21Z</time>
      </trkpt>
      <trkpt lat="44.8037" lon="3.83018">
        <ele>1026.553</ele>
        <time>2012-05-20T08:44:37Z</time>
      </trkpt>
      <trkpt lat="44.80393" lon="3.83018">
        <ele>1027.457</ele>
        <time>2012-05-20T08:44:59Z</time>
      </trkpt>
      <trkpt lat="44.80398" lon="3.83018">
        <ele>1027.794</ele>
        <time>2012-05-20T08:45:04Z</time>
      </trkpt>
      <trkpt lat="44.80421" lon="3.83022">
        <ele>1028.984</ele>
        <time>2012-05-20T08:45:25Z</time>
      </trkpt>
      <trkpt lat="44.80435" lon="3.83025">
        <ele>1029.824</ele>
        <time>2012-05-20T08:45:41Z</time>
      </trkpt>
      <trkpt lat="44.8045" lon="3.8303">
        <ele>1030.824</ele>
        <time>2012-05-20T08:45:57Z</time>
      </trkpt>
      <trkpt lat="44.80467" lon="3.8303">
        <ele>1032.451</ele>
        <time>2012-05-20T08:46:14Z</time>
      </trkpt>
      <trkpt lat="44.80474" lon="3.83032">
        <ele>1032.982</ele>
        <time>2012-05-20T08:46:20Z</time>
      </trkpt>
      <trkpt lat="44.80488" lon="3.83035">
        <ele>1033.701</ele>
        <time>2012-05-20T08:46:34Z</time>
      </trkpt>
      <trkpt lat="44.80507" lon="3.83039">
        <ele>1034.596</ele>
        <time>2012-05-20T08:46:52Z</time>
      </trkpt>
      <trkpt lat="44.80529" lon="3.83047">
        <ele>1036.403</ele>
        <time>2012-05-20T08:47:14Z</time>
      </trkpt>
      <trkpt lat="44.80553" lon="3.83059">
        <ele>1037.762</ele>
        <time>2012-05-20T08:47:37Z</time>
      </trkpt>
      <trkpt lat="44.80566" lon="3.83062">
        <ele>1037.706</ele>
        <time>2012-05-20T08:47:49Z</time>
      </trkpt>
      <trkpt lat="44.80585" lon="3.8307">
        <ele>1037.672</ele>
        <time>2012-05-20T08:48:06Z</time>
      </trkpt>
      <trkpt lat="44.80605" lon="3.83079">
        <ele>1037.597</ele>
        <time>2012-05-20T08:48:27Z</time>
      </trkpt>
      <trkpt lat="44.8061" lon="3.83078">
        <ele>1037.501</ele>
        <time>2012-05-20T08:48:34Z</time>
      </trkpt>
      <trkpt lat="44.80617" lon="3.83081">
        <ele>1037.253</ele>
        <time>2012-05-20T08:48:44Z</time>
      </trkpt>
      <trkpt lat="44.80637" lon="3.83086">
        <ele>1037.832</ele>
        <time>2012-05-20T08:49:01Z</time>
      </trkpt>
      <trkpt lat="44.80655" lon="3.83086">
        <ele>1038.724</ele>
        <time>2012-05-20T08:49:17Z</time>
      </trkpt>
      <trkpt lat="44.8067" lon="3.83091">
        <ele>1039.652</ele>
        <time>2012-05-20T08:49:31Z</time>
      </trkpt>
      <trkpt lat="44.80668" lon="3.83108">
        <ele>1041.427</ele>
        <time>2012-05-20T08:49:43Z</time>
      </trkpt>
      <trkpt lat="44.80666" lon="3.83125">
        <ele>1042.296</ele>
        <time>2012-05-20T08:49:54Z</time>
      </trkpt>
      <trkpt lat="44.80662" lon="3.8314">
        <ele>1044.155</ele>
        <time>2012-05-20T08:50:08Z</time>
      </trkpt>
      <trkpt lat="44.80664" lon="3.83156">
        <ele>1046.723</ele>
        <time>2012-05-20T08:50:24Z</time>
      </trkpt>
      <trkpt lat="44.80658" lon="3.83166">
        <ele>1049.354</ele>
        <time>2012-05-20T08:50:38Z</time>
      </trkpt>
      <trkpt lat="44.80655" lon="3.83184">
        <ele>1052.23</ele>
        <time>2012-05-20T08:50:57Z</time>
      </trkpt>
      <trkpt lat="44.80655" lon="3.83195">
        <ele>1054.049</ele>
        <time>2012-05-20T08:51:10Z</time>
      </trkpt>
      <trkpt lat="44.80652" lon="3.83209">
        <ele>1056.285</ele>
        <time>2012-05-20T08:51:25Z</time>
      </trkpt>
      <trkpt lat="44.8065" lon="3.83222">
        <ele>1058.308</ele>
        <time>2012-05-20T08:51:40Z</time>
      </trkpt>
      <trkpt lat="44.80649" lon="3.83236">
        <ele>1060.03</ele>
        <time>2012-05-20T08:51:55Z</time>
      </trkpt>
      <trkpt lat="44.80645" lon="3.83249">
        <ele>1062.237</ele>
        <time>2012-05-20T08:52:10Z</time>
      </trkpt>
      <trkpt lat="44.80638" lon="3.83267">
        <ele>1064.452</ele>
        <time>2012-05-20T08:52:29Z</time>
      </trkpt>
      <trkpt lat="44.80636" lon="3.83274">
        <ele>1066.535</ele>
        <time>2012-05-20T08:52:36Z</time>
      </trkpt>
      <trkpt lat="44.80635" lon="3.83279">
        <ele>1066.937</ele>
        <time>2012-05-20T08:52:41Z</time>
      </trkpt>
      <trkpt lat="44.8063" lon="3.83298">
        <ele>1068.924</ele>
        <time>2012-05-20T08:52:59Z</time>
      </trkpt>
      <trkpt lat="44.80626" lon="3.8332">
        <ele>1071.625</ele>
        <time>2012-05-20T08:53:20Z</time>
      </trkpt>
      <trkpt lat="44.8062" lon="3.83339">
        <ele>1074.259</ele>
        <time>2012-05-20T08:53:39Z</time>
      </trkpt>
      <trkpt lat="44.80611" lon="3.83359">
        <ele>1076.716</ele>
        <time>2012-05-20T08:53:59Z</time>
      </trkpt>
      <trkpt lat="44.80602" lon="3.8338">
        <ele>1078.289</ele>
        <time>2012-05-20T08:54:18Z</time>
      </trkpt>
      <trkpt lat="44.80593" lon="3.83396">
        <ele>1080.649</ele>
        <time>2012-05-20T08:54:36Z</time>
      </trkpt>
      <trkpt lat="44.80581" lon="3.83411">
        <ele>1082.534</ele>
        <time>2012-05-20T08:54:54Z</time>
      </trkpt>
      <trkpt lat="44.80569" lon="3.83428">
        <ele>1084.374</ele>
        <time>2012-05-20T08:55:12Z</time>
      </trkpt>
      <trkpt lat="44.8056" lon="3.83439">
        <ele>1085.031</ele>
        <time>2012-05-20T08:55:27Z</time>
      </trkpt>
      <trkpt lat="44.80546" lon="3.83463">
        <ele>1087.352</ele>
        <time>2012-05-20T08:55:49Z</time>
      </trkpt>
      <trkpt lat="44.80527" lon="3.83496">
        <ele>1089.869</ele>
        <time>2012-05-20T08:56:19Z</time>
      </trkpt>
      <trkpt lat="44.80516" lon="3.8351">
        <ele>1091.084</ele>
        <time>2012-05-20T08:56:34Z</time>
      </trkpt>
      <trkpt lat="44.80509" lon="3.83521">
        <ele>1092.03</ele>
        <time>2012-05-20T08:56:44Z</time>
      </trkpt>
      <trkpt lat="44.80493" lon="3.83539">
        <ele>1094.338</ele>
        <time>2012-05-20T08:57:05Z</time>
      </trkpt>
      <trkpt lat="44.80481" lon="3.83558">
        <ele>1096.094</ele>
        <time>2012-05-20T08:57:22Z</time>
      </trkpt>
      <trkpt lat="44.80468" lon="3.83579">
        <ele>1097.805</ele>
        <time>2012-05-20T08:57:40Z</time>
      </trkpt>
      <trkpt lat="44.80459" lon="3.83599">
        <ele>1099.114</ele>
        <time>2012-05-20T08:57:56Z</time>
      </trkpt>
      <trkpt lat="44.80449" lon="3.83617">
        <ele>1100.779</ele>
        <time>2012-05-20T08:58:12Z</time>
      </trkpt>
      <trkpt lat="44.80441" lon="3.83635">
        <ele>1102.879</ele>
        <time>2012-05-20T08:58:28Z</time>
      </trkpt>
      <trkpt lat="44.80441" lon="3.83638">
        <ele>1102.964</ele>
        <time>2012-05-20T08:58:30Z</time>
      </trkpt>
      <trkpt lat="44.80426" lon="3.83661">
        <ele>1103.847</ele>
        <time>2012-05-20T08:58:48Z</time>
      </trkpt>
      <trkpt lat="44.80414" lon="3.83681">
        <ele>1104.859</ele>
        <time>2012-05-20T08:59:03Z</time>
      </trkpt>
      <trkpt lat="44.80405" lon="3.83699">
        <ele>1106.141</ele>
        <time>2012-05-20T08:59:17Z</time>
      </trkpt>
      <trkpt lat="44.80403" lon="3.83701">
        <ele>1106.206</ele>
        <time>2012-05-20T08:59:19Z</time>
      </trkpt>
      <trkpt lat="44.80401" lon="3.83702">
        <ele>1106.055</ele>
        <time>2012-05-20T08:59:21Z</time>
      </trkpt>
      <trkpt lat="44.80401" lon="3.83705">
        <ele>1106.678</ele>
        <time>2012-05-20T08:59:23Z</time>
      </trkpt>
      <trkpt lat="44.80391" lon="3.83733">
        <ele>1106.971</ele>
        <time>2012-05-20T08:59:42Z</time>
      </trkpt>
      <trkpt lat="44.80382" lon="3.8376">
        <ele>1108.868</ele>
        <time>2012-05-20T09:00:01Z</time>
      </trkpt>
      <trkpt lat="44.80376" lon="3.8379">
        <ele>1110.508</ele>
        <time>2012-05-20T09:00:21Z</time>
      </trkpt>
      <trkpt lat="44.80367" lon="3.8382">
        <ele>1111.688</ele>
        <time>2012-05-20T09:00:43Z</time>
      </trkpt>
      <trkpt lat="44.80362" lon="3.83826">
        <ele>1112.196</ele>
        <time>2012-05-20T09:00:52Z</time>
      </trkpt>
      <trkpt lat="44.80352" lon="3.83847">
        <ele>1113.639</ele>
        <time>2012-05-20T09:01:09Z</time>
      </trkpt>
      <trkpt lat="44.8034" lon="3.83881">
        <ele>1116.592</ele>
        <time>2012-05-20T09:01:36Z</time>
      </trkpt>
      <trkpt lat="44.80329" lon="3.83907">
        <ele>1118.239</ele>
        <time>2012-05-20T09:01:56Z</time>
      </trkpt>
      <trkpt lat="44.80318" lon="3.83933">
        <ele>1120.069</ele>
        <time>2012-05-20T09:02:16Z</time>
      </trkpt>
      <trkpt lat="44.80304" lon="3.83964">
        <ele>1121.734</ele>
        <time>2012-05-20T09:02:38Z</time>
      </trkpt>
      <trkpt lat="44.80294" lon="3.83982">
        <ele>1124.297</ele>
        <time>2012-05-20T09:02:54Z</time>
      </trkpt>
      <trkpt lat="44.80284" lon="3.84003">
        <ele>1124.846</ele>
        <time>2012-05-20T09:03:11Z</time>
      </trkpt>
      <trkpt lat="44.80274" lon="3.84027">
        <ele>1125.635</ele>
        <time>2012-05-20T09:03:30Z</time>
      </trkpt>
      <trkpt lat="44.80272" lon="3.84033">
        <ele>1126.087</ele>
        <time>2012-05-20T09:03:35Z</time>
      </trkpt>
      <trkpt lat="44.80271" lon="3.84037">
        <ele>1126.37</ele>
        <time>2012-05-20T09:03:38Z</time>
      </trkpt>
      <trkpt lat="44.80259" lon="3.84066">
        <ele>1127.246</ele>
        <time>2012-05-20T09:04:00Z</time>
      </trkpt>
      <trkpt lat="44.80248" lon="3.84093">
        <ele>1128.646</ele>
        <time>2012-05-20T09:04:20Z</time>
      </trkpt>
      <trkpt lat="44.80238" lon="3.84122">
        <ele>1130.172</ele>
        <time>2012-05-20T09:04:40Z</time>
      </trkpt>
      <trkpt lat="44.80228" lon="3.84151">
        <ele>1132.429</ele>
        <time>2012-05-20T09:05:01Z</time>
      </trkpt>
      <trkpt lat="44.8022" lon="3.8418">
        <ele>1135.292</ele>
        <time>2012-05-20T09:05:21Z</time>
      </trkpt>
      <trkpt lat="44.80215" lon="3.84207">
        <ele>1137.967</ele>
        <time>2012-05-20T09:05:39Z</time>
      </trkpt>
      <trkpt lat="44.80211" lon="3.84227">
        <ele>1139.627</ele>
        <time>2012-05-20T09:05:54Z</time>
      </trkpt>
      <trkpt lat="44.80206" lon="3.84255">
        <ele>1142.004</ele>
        <time>2012-05-20T09:06:16Z</time>
      </trkpt>
      <trkpt lat="44.80204" lon="3.84279">
        <ele>1145.167</ele>
        <time>2012-05-20T09:06:35Z</time>
      </trkpt>
      <trkpt lat="44.80198" lon="3.843">
        <ele>1148.18</ele>
        <time>2012-05-20T09:06:52Z</time>
      </trkpt>
      <trkpt lat="44.80192" lon="3.84324">
        <ele>1148.766</ele>
        <time>2012-05-20T09:07:10Z</time>
      </trkpt>
      <trkpt lat="44.80183" lon="3.84341">
        <ele>1150.587</ele>
        <time>2012-05-20T09:07:25Z</time>
      </trkpt>
      <trkpt lat="44.80179" lon="3.84349">
        <ele>1150.675</ele>
        <time>2012-05-20T09:07:32Z</time>
      </trkpt>
      <trkpt lat="44.80168" lon="3.84369">
        <ele>1152.007</ele>
        <time>2012-05-20T09:07:49Z</time>
      </trkpt>
      <trkpt lat="44.80158" lon="3.84392">
        <ele>1153.782</ele>
        <time>2012-05-20T09:08:08Z</time>
      </trkpt>
      <trkpt lat="44.80147" lon="3.84418">
        <ele>1155.354</ele>
        <time>2012-05-20T09:08:29Z</time>
      </trkpt>
      <trkpt lat="44.8014" lon="3.8444">
        <ele>1157.243</ele>
        <time>2012-05-20T09:08:46Z</time>
      </trkpt>
      <trkpt lat="44.80133" lon="3.84467">
        <ele>1158.195</ele>
        <time>2012-05-20T09:09:03Z</time>
      </trkpt>
      <trkpt lat="44.80123" lon="3.845">
        <ele>1159.585</ele>
        <time>2012-05-20T09:09:25Z</time>
      </trkpt>
      <trkpt lat="44.8011" lon="3.84536">
        <ele>1159.954</ele>
        <time>2012-05-20T09:09:49Z</time>
      </trkpt>
      <trkpt lat="44.80101" lon="3.84568">
        <ele>1160.203</ele>
        <time>2012-05-20T09:10:10Z</time>
      </trkpt>
      <trkpt lat="44.80096" lon="3.84605">
        <ele>1159.299</ele>
        <time>2012-05-20T09:10:32Z</time>
      </trkpt>
      <trkpt lat="44.80091" lon="3.84643">
        <ele>1158.433</ele>
        <time>2012-05-20T09:10:54Z</time>
      </trkpt>
      <trkpt lat="44.80077" lon="3.84679">
        <ele>1157.04</ele>
        <time>2012-05-20T09:11:19Z</time>
      </trkpt>
      <trkpt lat="44.80069" lon="3.84716">
        <ele>1155.209</ele>
        <time>2012-05-20T09:11:42Z</time>
      </trkpt>
      <trkpt lat="44.8007" lon="3.84765">
        <ele>1154.288</ele>
        <time>2012-05-20T09:12:11Z</time>
      </trkpt>
      <trkpt lat="44.80071" lon="3.84811">
        <ele>1151.94</ele>
        <time>2012-05-20T09:12:39Z</time>
      </trkpt>
      <trkpt lat="44.80075" lon="3.84847">
        <ele>1149.121</ele>
        <time>2012-05-20T09:13:01Z</time>
      </trkpt>
      <trkpt lat="44.80081" lon="3.84889">
        <ele>1146.902</ele>
        <time>2012-05-20T09:13:31Z</time>
      </trkpt>
      <trkpt lat="44.80079" lon="3.8489">
        <ele>1146.755</ele>
        <time>2012-05-20T09:13:58Z</time>
      </trkpt>
      <trkpt lat="44.8008" lon="3.84899">
        <ele>1146.49</ele>
        <time>2012-05-20T09:14:11Z</time>
      </trkpt>
      <trkpt lat="44.8008" lon="3.84904">
        <ele>1146.516</ele>
        <time>2012-05-20T09:14:24Z</time>
      </trkpt>
      <trkpt lat="44.80081" lon="3.84907">
        <ele>1146.889</ele>
        <time>2012-05-20T09:14:58Z</time>
      </trkpt>
      <trkpt lat="44.80082" lon="3.8492">
        <ele>1146.095</ele>
        <time>2012-05-20T09:15:30Z</time>
      </trkpt>
      <trkpt lat="44.80084" lon="3.84972">
        <ele>1145.318</ele>
        <time>2012-05-20T09:15:59Z</time>
      </trkpt>
      <trkpt lat="44.80083" lon="3.85013">
        <ele>1143.926</ele>
        <time>2012-05-20T09:16:23Z</time>
      </trkpt>
      <trkpt lat="44.80074" lon="3.85063">
        <ele>1143.898</ele>
        <time>2012-05-20T09:16:52Z</time>
      </trkpt>
      <trkpt lat="44.80073" lon="3.85085">
        <ele>1144.158</ele>
        <time>2012-05-20T09:23:06Z</time>
      </trkpt>
      <trkpt lat="44.80076" lon="3.85092">
        <ele>1144.105</ele>
        <time>2012-05-20T09:24:19Z</time>
      </trkpt>
      <trkpt lat="44.80073" lon="3.85092">
        <ele>1144.477</ele>
        <time>2012-05-20T09:24:22Z</time>
      </trkpt>
      <trkpt lat="44.80055" lon="3.85118">
        <ele>1145.113</ele>
        <time>2012-05-20T09:24:42Z</time>
      </trkpt>
      <trkpt lat="44.80038" lon="3.85141">
        <ele>1146.569</ele>
        <time>2012-05-20T09:25:01Z</time>
      </trkpt>
      <trkpt lat="44.80021" lon="3.8516">
        <ele>1148.064</ele>
        <time>2012-05-20T09:25:17Z</time>
      </trkpt>
      <trkpt lat="44.80013" lon="3.85166">
        <ele>1148.42</ele>
        <time>2012-05-20T09:25:24Z</time>
      </trkpt>
      <trkpt lat="44.79993" lon="3.85197">
        <ele>1149.522</ele>
        <time>2012-05-20T09:25:45Z</time>
      </trkpt>
      <trkpt lat="44.79973" lon="3.85228">
        <ele>1149.675</ele>
        <time>2012-05-20T09:26:07Z</time>
      </trkpt>
      <trkpt lat="44.79946" lon="3.85266">
        <ele>1149.889</ele>
        <time>2012-05-20T09:26:36Z</time>
      </trkpt>
      <trkpt lat="44.79923" lon="3.85291">
        <ele>1151.406</ele>
        <time>2012-05-20T09:26:58Z</time>
      </trkpt>
      <trkpt lat="44.79922" lon="3.8529">
        <ele>1151.649</ele>
        <time>2012-05-20T09:27:21Z</time>
      </trkpt>
      <trkpt lat="44.79916" lon="3.85303">
        <ele>1150.806</ele>
        <time>2012-05-20T09:27:48Z</time>
      </trkpt>
      <trkpt lat="44.79896" lon="3.85324">
        <ele>1151.168</ele>
        <time>2012-05-20T09:28:09Z</time>
      </trkpt>
      <trkpt lat="44.79874" lon="3.85343">
        <ele>1151.073</ele>
        <time>2012-05-20T09:28:30Z</time>
      </trkpt>
      <trkpt lat="44.79853" lon="3.85362">
        <ele>1151.642</ele>
        <time>2012-05-20T09:28:50Z</time>
      </trkpt>
      <trkpt lat="44.79834" lon="3.85378">
        <ele>1151.501</ele>
        <time>2012-05-20T09:29:06Z</time>
      </trkpt>
      <trkpt lat="44.79809" lon="3.85401">
        <ele>1152.177</ele>
        <time>2012-05-20T09:29:29Z</time>
      </trkpt>
      <trkpt lat="44.79792" lon="3.85416">
        <ele>1153.259</ele>
        <time>2012-05-20T09:29:45Z</time>
      </trkpt>
      <trkpt lat="44.79781" lon="3.85426">
        <ele>1153.397</ele>
        <time>2012-05-20T09:29:56Z</time>
      </trkpt>
      <trkpt lat="44.7977" lon="3.85438">
        <ele>1153.124</ele>
        <time>2012-05-20T09:30:07Z</time>
      </trkpt>
      <trkpt lat="44.79753" lon="3.8546">
        <ele>1153.804</ele>
        <time>2012-05-20T09:30:25Z</time>
      </trkpt>
      <trkpt lat="44.79732" lon="3.85491">
        <ele>1155.323</ele>
        <time>2012-05-20T09:30:49Z</time>
      </trkpt>
      <trkpt lat="44.79719" lon="3.85516">
        <ele>1155.212</ele>
        <time>2012-05-20T09:31:07Z</time>
      </trkpt>
      <trkpt lat="44.797" lon="3.85531">
        <ele>1156.796</ele>
        <time>2012-05-20T09:31:25Z</time>
      </trkpt>
      <trkpt lat="44.79675" lon="3.8554">
        <ele>1157.473</ele>
        <time>2012-05-20T09:31:45Z</time>
      </trkpt>
      <trkpt lat="44.79647" lon="3.85557">
        <ele>1157.219</ele>
        <time>2012-05-20T09:32:09Z</time>
      </trkpt>
      <trkpt lat="44.79629" lon="3.85572">
        <ele>1157.881</ele>
        <time>2012-05-20T09:32:28Z</time>
      </trkpt>
      <trkpt lat="44.79595" lon="3.85598">
        <ele>1157.255</ele>
        <time>2012-05-20T09:32:56Z</time>
      </trkpt>
      <trkpt lat="44.79576" lon="3.85616">
        <ele>1157.044</ele>
        <time>2012-05-20T09:33:15Z</time>
      </trkpt>
      <trkpt lat="44.79567" lon="3.85626">
        <ele>1157.085</ele>
        <time>2012-05-20T09:33:27Z</time>
      </trkpt>
      <trkpt lat="44.79565" lon="3.85627">
        <ele>1155.458</ele>
        <time>2012-05-20T09:33:38Z</time>
      </trkpt>
      <trkpt lat="44.79538" lon="3.85645">
        <ele>1157.669</ele>
        <time>2012-05-20T09:34:01Z</time>
      </trkpt>
      <trkpt lat="44.79516" lon="3.85664">
        <ele>1157.173</ele>
        <time>2012-05-20T09:34:21Z</time>
      </trkpt>
      <trkpt lat="44.7949" lon="3.85695">
        <ele>1158.599</ele>
        <time>2012-05-20T09:34:48Z</time>
      </trkpt>
      <trkpt lat="44.79485" lon="3.85706">
        <ele>1158.912</ele>
        <time>2012-05-20T09:34:56Z</time>
      </trkpt>
      <trkpt lat="44.79469" lon="3.85734">
        <ele>1157.604</ele>
        <time>2012-05-20T09:35:16Z</time>
      </trkpt>
      <trkpt lat="44.7945" lon="3.85766">
        <ele>1158.245</ele>
        <time>2012-05-20T09:35:39Z</time>
      </trkpt>
      <trkpt lat="44.79431" lon="3.85799">
        <ele>1157.925</ele>
        <time>2012-05-20T09:36:02Z</time>
      </trkpt>
      <trkpt lat="44.79418" lon="3.85817">
        <ele>1157.525</ele>
        <time>2012-05-20T09:36:16Z</time>
      </trkpt>
      <trkpt lat="44.79407" lon="3.85831">
        <ele>1157.703</ele>
        <time>2012-05-20T09:36:28Z</time>
      </trkpt>
      <trkpt lat="44.79403" lon="3.85836">
        <ele>1157.448</ele>
        <time>2012-05-20T09:36:32Z</time>
      </trkpt>
      <trkpt lat="44.79381" lon="3.85861">
        <ele>1159.142</ele>
        <time>2012-05-20T09:36:56Z</time>
      </trkpt>
      <trkpt lat="44.79369" lon="3.85872">
        <ele>1160.44</ele>
        <time>2012-05-20T09:37:09Z</time>
      </trkpt>
      <trkpt lat="44.79359" lon="3.85871">
        <ele>1161.02</ele>
        <time>2012-05-20T09:37:21Z</time>
      </trkpt>
      <trkpt lat="44.79357" lon="3.85871">
        <ele>1161.028</ele>
        <time>2012-05-20T09:37:23Z</time>
      </trkpt>
      <trkpt lat="44.79349" lon="3.8587">
        <ele>1161.357</ele>
        <time>2012-05-20T09:37:31Z</time>
      </trkpt>
      <trkpt lat="44.79335" lon="3.85871">
        <ele>1160.97</ele>
        <time>2012-05-20T09:37:43Z</time>
      </trkpt>
      <trkpt lat="44.79307" lon="3.85882">
        <ele>1162.509</ele>
        <time>2012-05-20T09:38:07Z</time>
      </trkpt>
      <trkpt lat="44.79283" lon="3.85888">
        <ele>1162.487</ele>
        <time>2012-05-20T09:38:27Z</time>
      </trkpt>
      <trkpt lat="44.79255" lon="3.85884">
        <ele>1162.525</ele>
        <time>2012-05-20T09:38:51Z</time>
      </trkpt>
      <trkpt lat="44.7923" lon="3.85877">
        <ele>1162.188</ele>
        <time>2012-05-20T09:39:12Z</time>
      </trkpt>
      <trkpt lat="44.79205" lon="3.85874">
        <ele>1162.477</ele>
        <time>2012-05-20T09:39:32Z</time>
      </trkpt>
      <trkpt lat="44.79195" lon="3.85875">
        <ele>1163.129</ele>
        <time>2012-05-20T09:39:40Z</time>
      </trkpt>
      <trkpt lat="44.79164" lon="3.85878">
        <ele>1161.762</ele>
        <time>2012-05-20T09:40:06Z</time>
      </trkpt>
      <trkpt lat="44.79141" lon="3.85886">
        <ele>1161.1</ele>
        <time>2012-05-20T09:40:25Z</time>
      </trkpt>
      <trkpt lat="44.79121" lon="3.85896">
        <ele>1161.661</ele>
        <time>2012-05-20T09:40:42Z</time>
      </trkpt>
      <trkpt lat="44.79097" lon="3.85905">
        <ele>1162.79</ele>
        <time>2012-05-20T09:41:03Z</time>
      </trkpt>
      <trkpt lat="44.79086" lon="3.85907">
        <ele>1163.028</ele>
        <time>2012-05-20T09:41:13Z</time>
      </trkpt>
      <trkpt lat="44.79083" lon="3.85908">
        <ele>1163.594</ele>
        <time>2012-05-20T09:41:16Z</time>
      </trkpt>
      <trkpt lat="44.79068" lon="3.85913">
        <ele>1162.817</ele>
        <time>2012-05-20T09:41:29Z</time>
      </trkpt>
      <trkpt lat="44.79048" lon="3.8592">
        <ele>1164.689</ele>
        <time>2012-05-20T09:41:47Z</time>
      </trkpt>
      <trkpt lat="44.79029" lon="3.8593">
        <ele>1164.135</ele>
        <time>2012-05-20T09:42:04Z</time>
      </trkpt>
      <trkpt lat="44.79007" lon="3.85941">
        <ele>1162.503</ele>
        <time>2012-05-20T09:42:24Z</time>
      </trkpt>
      <trkpt lat="44.78984" lon="3.85959">
        <ele>1162.761</ele>
        <time>2012-05-20T09:42:45Z</time>
      </trkpt>
      <trkpt lat="44.78968" lon="3.85979">
        <ele>1162.183</ele>
        <time>2012-05-20T09:43:03Z</time>
      </trkpt>
      <trkpt lat="44.78967" lon="3.86021">
        <ele>1159.103</ele>
        <time>2012-05-20T09:43:28Z</time>
      </trkpt>
      <trkpt lat="44.78965" lon="3.86059">
        <ele>1156.786</ele>
        <time>2012-05-20T09:43:50Z</time>
      </trkpt>
      <trkpt lat="44.78958" lon="3.86082">
        <ele>1154.66</ele>
        <time>2012-05-20T09:44:05Z</time>
      </trkpt>
      <trkpt lat="44.7895" lon="3.86094">
        <ele>1154.039</ele>
        <time>2012-05-20T09:44:19Z</time>
      </trkpt>
      <trkpt lat="44.78947" lon="3.86099">
        <ele>1154.73</ele>
        <time>2012-05-20T09:44:26Z</time>
      </trkpt>
      <trkpt lat="44.78942" lon="3.86103">
        <ele>1154.609</ele>
        <time>2012-05-20T09:44:32Z</time>
      </trkpt>
      <trkpt lat="44.7894" lon="3.86108">
        <ele>1155.901</ele>
        <time>2012-05-20T09:45:22Z</time>
      </trkpt>
      <trkpt lat="44.78923" lon="3.86095">
        <ele>1155.942</ele>
        <time>2012-05-20T09:45:41Z</time>
      </trkpt>
      <trkpt lat="44.78902" lon="3.86071">
        <ele>1155.01</ele>
        <time>2012-05-20T09:46:01Z</time>
      </trkpt>
      <trkpt lat="44.78896" lon="3.86062">
        <ele>1155.536</ele>
        <time>2012-05-20T09:46:08Z</time>
      </trkpt>
      <trkpt lat="44.78894" lon="3.86061">
        <ele>1155.918</ele>
        <time>2012-05-20T09:46:10Z</time>
      </trkpt>
      <trkpt lat="44.7887" lon="3.86042">
        <ele>1155.497</ele>
        <time>2012-05-20T09:46:31Z</time>
      </trkpt>
      <trkpt lat="44.78855" lon="3.86055">
        <ele>1157.138</ele>
        <time>2012-05-20T09:46:47Z</time>
      </trkpt>
      <trkpt lat="44.78835" lon="3.86068">
        <ele>1160.202</ele>
        <time>2012-05-20T09:47:07Z</time>
      </trkpt>
      <trkpt lat="44.78827" lon="3.86071">
        <ele>1161.524</ele>
        <time>2012-05-20T09:47:14Z</time>
      </trkpt>
      <trkpt lat="44.78813" lon="3.86077">
        <ele>1164.551</ele>
        <time>2012-05-20T09:47:28Z</time>
      </trkpt>
      <trkpt lat="44.78798" lon="3.86085">
        <ele>1168.232</ele>
        <time>2012-05-20T09:47:48Z</time>
      </trkpt>
      <trkpt lat="44.78787" lon="3.86095">
        <ele>1169.894</ele>
        <time>2012-05-20T09:48:02Z</time>
      </trkpt>
      <trkpt lat="44.78778" lon="3.86107">
        <ele>1172.858</ele>
        <time>2012-05-20T09:48:17Z</time>
      </trkpt>
      <trkpt lat="44.78766" lon="3.86117">
        <ele>1176.025</ele>
        <time>2012-05-20T09:48:32Z</time>
      </trkpt>
      <trkpt lat="44.78761" lon="3.86124">
        <ele>1177.174</ele>
        <time>2012-05-20T09:48:40Z</time>
      </trkpt>
      <trkpt lat="44.78759" lon="3.86127">
        <ele>1177.032</ele>
        <time>2012-05-20T09:48:43Z</time>
      </trkpt>
      <trkpt lat="44.78746" lon="3.8614">
        <ele>1180.058</ele>
        <time>2012-05-20T09:49:01Z</time>
      </trkpt>
      <trkpt lat="44.7874" lon="3.86142">
        <ele>1180.184</ele>
        <time>2012-05-20T09:49:08Z</time>
      </trkpt>
      <trkpt lat="44.78735" lon="3.86141">
        <ele>1180.919</ele>
        <time>2012-05-20T09:49:35Z</time>
      </trkpt>
      <trkpt lat="44.78728" lon="3.8615">
        <ele>1181.037</ele>
        <time>2012-05-20T09:49:43Z</time>
      </trkpt>
      <trkpt lat="44.78721" lon="3.86164">
        <ele>1182.688</ele>
        <time>2012-05-20T09:49:53Z</time>
      </trkpt>
      <trkpt lat="44.78719" lon="3.8617">
        <ele>1183.026</ele>
        <time>2012-05-20T09:49:57Z</time>
      </trkpt>
      <trkpt lat="44.78717" lon="3.86179">
        <ele>1182.249</ele>
        <time>2012-05-20T09:50:03Z</time>
      </trkpt>
      <trkpt lat="44.78715" lon="3.86184">
        <ele>1183.709</ele>
        <time>2012-05-20T09:50:06Z</time>
      </trkpt>
      <trkpt lat="44.78709" lon="3.862">
        <ele>1185.007</ele>
        <time>2012-05-20T09:50:19Z</time>
      </trkpt>
      <trkpt lat="44.78703" lon="3.86213">
        <ele>1186.41</ele>
        <time>2012-05-20T09:50:29Z</time>
      </trkpt>
      <trkpt lat="44.78692" lon="3.86242">
        <ele>1186.338</ele>
        <time>2012-05-20T09:50:49Z</time>
      </trkpt>
      <trkpt lat="44.78679" lon="3.86274">
        <ele>1188.792</ele>
        <time>2012-05-20T09:51:11Z</time>
      </trkpt>
      <trkpt lat="44.78671" lon="3.86294">
        <ele>1189.354</ele>
        <time>2012-05-20T09:51:28Z</time>
      </trkpt>
      <trkpt lat="44.78663" lon="3.86311">
        <ele>1190.93</ele>
        <time>2012-05-20T09:51:42Z</time>
      </trkpt>
      <trkpt lat="44.78661" lon="3.8631">
        <ele>1190.476</ele>
        <time>2012-05-20T09:55:52Z</time>
      </trkpt>
      <trkpt lat="44.7866" lon="3.86312">
        <ele>1190.465</ele>
        <time>2012-05-20T09:56:18Z</time>
      </trkpt>
      <trkpt lat="44.78662" lon="3.8631">
        <ele>1189.485</ele>
        <time>2012-05-20T09:59:15Z</time>
      </trkpt>
      <trkpt lat="44.78662" lon="3.86314">
        <ele>1189.214</ele>
        <time>2012-05-20T10:00:04Z</time>
      </trkpt>
      <trkpt lat="44.78653" lon="3.86337">
        <ele>1191.034</ele>
        <time>2012-05-20T10:00:21Z</time>
      </trkpt>
      <trkpt lat="44.78639" lon="3.8636">
        <ele>1193.401</ele>
        <time>2012-05-20T10:00:40Z</time>
      </trkpt>
      <trkpt lat="44.78632" lon="3.86377">
        <ele>1193.86</ele>
        <time>2012-05-20T10:00:56Z</time>
      </trkpt>
      <trkpt lat="44.7863" lon="3.86381">
        <ele>1194.11</ele>
        <time>2012-05-20T10:00:59Z</time>
      </trkpt>
      <trkpt lat="44.7862" lon="3.86405">
        <ele>1197.172</ele>
        <time>2012-05-20T10:01:19Z</time>
      </trkpt>
      <trkpt lat="44.78616" lon="3.86416">
        <ele>1198.633</ele>
        <time>2012-05-20T10:01:28Z</time>
      </trkpt>
      <trkpt lat="44.78605" lon="3.86439">
        <ele>1200.059</ele>
        <time>2012-05-20T10:01:46Z</time>
      </trkpt>
      <trkpt lat="44.78593" lon="3.86461">
        <ele>1202.824</ele>
        <time>2012-05-20T10:02:04Z</time>
      </trkpt>
      <trkpt lat="44.78586" lon="3.86471">
        <ele>1203.553</ele>
        <time>2012-05-20T10:02:18Z</time>
      </trkpt>
      <trkpt lat="44.78585" lon="3.86474">
        <ele>1204.243</ele>
        <time>2012-05-20T10:02:39Z</time>
      </trkpt>
      <trkpt lat="44.78577" lon="3.86492">
        <ele>1206.11</ele>
        <time>2012-05-20T10:02:53Z</time>
      </trkpt>
      <trkpt lat="44.78561" lon="3.86515">
        <ele>1207.911</ele>
        <time>2012-05-20T10:03:12Z</time>
      </trkpt>
      <trkpt lat="44.78552" lon="3.86535">
        <ele>1208.754</ele>
        <time>2012-05-20T10:03:25Z</time>
      </trkpt>
      <trkpt lat="44.7855" lon="3.86541">
        <ele>1209.437</ele>
        <time>2012-05-20T10:03:29Z</time>
      </trkpt>
      <trkpt lat="44.78545" lon="3.86558">
        <ele>1210.279</ele>
        <time>2012-05-20T10:03:40Z</time>
      </trkpt>
      <trkpt lat="44.78534" lon="3.86592">
        <ele>1211.498</ele>
        <time>2012-05-20T10:04:00Z</time>
      </trkpt>
      <trkpt lat="44.78522" lon="3.86607">
        <ele>1210.985</ele>
        <time>2012-05-20T10:04:11Z</time>
      </trkpt>
      <trkpt lat="44.78516" lon="3.86616">
        <ele>1211.056</ele>
        <time>2012-05-20T10:04:20Z</time>
      </trkpt>
      <trkpt lat="44.78511" lon="3.86623">
        <ele>1209.344</ele>
        <time>2012-05-20T10:04:25Z</time>
      </trkpt>
      <trkpt lat="44.78507" lon="3.86627">
        <ele>1211.311</ele>
        <time>2012-05-20T10:04:28Z</time>
      </trkpt>
      <trkpt lat="44.78505" lon="3.86629">
        <ele>1211.141</ele>
        <time>2012-05-20T10:04:30Z</time>
      </trkpt>
      <trkpt lat="44.785" lon="3.86636">
        <ele>1212.479</ele>
        <time>2012-05-20T10:04:35Z</time>
      </trkpt>
      <trkpt lat="44.78471" lon="3.8667">
        <ele>1213.033</ele>
        <time>2012-05-20T10:05:02Z</time>
      </trkpt>
      <trkpt lat="44.7845" lon="3.86697">
        <ele>1213.71</ele>
        <time>2012-05-20T10:05:23Z</time>
      </trkpt>
      <trkpt lat="44.78424" lon="3.86728">
        <ele>1215.085</ele>
        <time>2012-05-20T10:05:47Z</time>
      </trkpt>
      <trkpt lat="44.7841" lon="3.86745">
        <ele>1215.243</ele>
        <time>2012-05-20T10:06:00Z</time>
      </trkpt>
      <trkpt lat="44.78396" lon="3.86766">
        <ele>1215.714</ele>
        <time>2012-05-20T10:06:15Z</time>
      </trkpt>
      <trkpt lat="44.78395" lon="3.86772">
        <ele>1216.093</ele>
        <time>2012-05-20T10:06:18Z</time>
      </trkpt>
      <trkpt lat="44.78378" lon="3.86798">
        <ele>1216.105</ele>
        <time>2012-05-20T10:06:39Z</time>
      </trkpt>
      <trkpt lat="44.78365" lon="3.86829">
        <ele>1218.161</ele>
        <time>2012-05-20T10:06:58Z</time>
      </trkpt>
      <trkpt lat="44.7836" lon="3.8684">
        <ele>1218.344</ele>
        <time>2012-05-20T10:07:05Z</time>
      </trkpt>
      <trkpt lat="44.78358" lon="3.86844">
        <ele>1218.422</ele>
        <time>2012-05-20T10:07:08Z</time>
      </trkpt>
      <trkpt lat="44.78345" lon="3.86873">
        <ele>1219.581</ele>
        <time>2012-05-20T10:07:27Z</time>
      </trkpt>
      <trkpt lat="44.7834" lon="3.86886">
        <ele>1220.346</ele>
        <time>2012-05-20T10:07:36Z</time>
      </trkpt>
      <trkpt lat="44.7833" lon="3.86908">
        <ele>1221.851</ele>
        <time>2012-05-20T10:07:50Z</time>
      </trkpt>
      <trkpt lat="44.78329" lon="3.86911">
        <ele>1221.992</ele>
        <time>2012-05-20T10:07:52Z</time>
      </trkpt>
      <trkpt lat="44.78326" lon="3.86919">
        <ele>1222.945</ele>
        <time>2012-05-20T10:07:58Z</time>
      </trkpt>
      <trkpt lat="44.78314" lon="3.86947">
        <ele>1223.494</ele>
        <time>2012-05-20T10:08:15Z</time>
      </trkpt>
      <trkpt lat="44.78313" lon="3.86948">
        <ele>1224.308</ele>
        <time>2012-05-20T10:08:16Z</time>
      </trkpt>
      <trkpt lat="44.78309" lon="3.86951">
        <ele>1224.261</ele>
        <time>2012-05-20T10:08:19Z</time>
      </trkpt>
      <trkpt lat="44.78304" lon="3.86958">
        <ele>1224.583</ele>
        <time>2012-05-20T10:08:25Z</time>
      </trkpt>
      <trkpt lat="44.78302" lon="3.86963">
        <ele>1224.062</ele>
        <time>2012-05-20T10:08:28Z</time>
      </trkpt>
      <trkpt lat="44.783" lon="3.86967">
        <ele>1224.326</ele>
        <time>2012-05-20T10:08:31Z</time>
      </trkpt>
      <trkpt lat="44.78296" lon="3.86974">
        <ele>1224.783</ele>
        <time>2012-05-20T10:08:36Z</time>
      </trkpt>
      <trkpt lat="44.78285" lon="3.86995">
        <ele>1225.421</ele>
        <time>2012-05-20T10:08:50Z</time>
      </trkpt>
      <trkpt lat="44.78282" lon="3.86999">
        <ele>1224.618</ele>
        <time>2012-05-20T10:08:54Z</time>
      </trkpt>
      <trkpt lat="44.78281" lon="3.87003">
        <ele>1224.648</ele>
        <time>2012-05-20T10:08:56Z</time>
      </trkpt>
      <trkpt lat="44.78272" lon="3.87019">
        <ele>1223.118</ele>
        <time>2012-05-20T10:09:07Z</time>
      </trkpt>
      <trkpt lat="44.78269" lon="3.87024">
        <ele>1223.755</ele>
        <time>2012-05-20T10:09:10Z</time>
      </trkpt>
      <trkpt lat="44.78265" lon="3.87029">
        <ele>1222.92</ele>
        <time>2012-05-20T10:09:14Z</time>
      </trkpt>
      <trkpt lat="44.78259" lon="3.87041">
        <ele>1222.133</ele>
        <time>2012-05-20T10:09:22Z</time>
      </trkpt>
      <trkpt lat="44.78258" lon="3.87044">
        <ele>1222.566</ele>
        <time>2012-05-20T10:09:24Z</time>
      </trkpt>
      <trkpt lat="44.78253" lon="3.87067">
        <ele>1222.456</ele>
        <time>2012-05-20T10:09:36Z</time>
      </trkpt>
      <trkpt lat="44.78251" lon="3.87076">
        <ele>1222.467</ele>
        <time>2012-05-20T10:09:41Z</time>
      </trkpt>
      <trkpt lat="44.78245" lon="3.8711">
        <ele>1221.871</ele>
        <time>2012-05-20T10:10:00Z</time>
      </trkpt>
      <trkpt lat="44.78255" lon="3.87145">
        <ele>1221.035</ele>
        <time>2012-05-20T10:10:19Z</time>
      </trkpt>
      <trkpt lat="44.78257" lon="3.87151">
        <ele>1221.094</ele>
        <time>2012-05-20T10:10:22Z</time>
      </trkpt>
      <trkpt lat="44.78259" lon="3.87155">
        <ele>1221.562</ele>
        <time>2012-05-20T10:10:25Z</time>
      </trkpt>
      <trkpt lat="44.78261" lon="3.87159">
        <ele>1221.764</ele>
        <time>2012-05-20T10:10:27Z</time>
      </trkpt>
      <trkpt lat="44.78266" lon="3.87168">
        <ele>1222.057</ele>
        <time>2012-05-20T10:10:33Z</time>
      </trkpt>
      <trkpt lat="44.7828" lon="3.872">
        <ele>1222.012</ele>
        <time>2012-05-20T10:10:52Z</time>
      </trkpt>
      <trkpt lat="44.78286" lon="3.87211">
        <ele>1221.972</ele>
        <time>2012-05-20T10:10:59Z</time>
      </trkpt>
      <trkpt lat="44.78288" lon="3.87221">
        <ele>1222.489</ele>
        <time>2012-05-20T10:11:04Z</time>
      </trkpt>
      <trkpt lat="44.78292" lon="3.87227">
        <ele>1222.704</ele>
        <time>2012-05-20T10:11:08Z</time>
      </trkpt>
      <trkpt lat="44.78294" lon="3.87232">
        <ele>1222.597</ele>
        <time>2012-05-20T10:11:11Z</time>
      </trkpt>
      <trkpt lat="44.78297" lon="3.87236">
        <ele>1223.809</ele>
        <time>2012-05-20T10:11:14Z</time>
      </trkpt>
      <trkpt lat="44.78302" lon="3.87242">
        <ele>1223.558</ele>
        <time>2012-05-20T10:11:19Z</time>
      </trkpt>
      <trkpt lat="44.78306" lon="3.87251">
        <ele>1223.77</ele>
        <time>2012-05-20T10:11:25Z</time>
      </trkpt>
      <trkpt lat="44.78311" lon="3.87257">
        <ele>1223.515</ele>
        <time>2012-05-20T10:11:29Z</time>
      </trkpt>
      <trkpt lat="44.7832" lon="3.87272">
        <ele>1223.598</ele>
        <time>2012-05-20T10:11:38Z</time>
      </trkpt>
      <trkpt lat="44.78327" lon="3.87294">
        <ele>1224.523</ele>
        <time>2012-05-20T10:11:53Z</time>
      </trkpt>
      <trkpt lat="44.78328" lon="3.87299">
        <ele>1224.646</ele>
        <time>2012-05-20T10:11:55Z</time>
      </trkpt>
      <trkpt lat="44.7833" lon="3.87307">
        <ele>1224.521</ele>
        <time>2012-05-20T10:12:02Z</time>
      </trkpt>
      <trkpt lat="44.78338" lon="3.87325">
        <ele>1225.163</ele>
        <time>2012-05-20T10:12:14Z</time>
      </trkpt>
      <trkpt lat="44.78341" lon="3.8733">
        <ele>1225.186</ele>
        <time>2012-05-20T10:12:18Z</time>
      </trkpt>
      <trkpt lat="44.78344" lon="3.87334">
        <ele>1225.555</ele>
        <time>2012-05-20T10:12:21Z</time>
      </trkpt>
      <trkpt lat="44.78345" lon="3.87337">
        <ele>1225.907</ele>
        <time>2012-05-20T10:12:24Z</time>
      </trkpt>
      <trkpt lat="44.78352" lon="3.87356">
        <ele>1227.429</ele>
        <time>2012-05-20T10:12:37Z</time>
      </trkpt>
      <trkpt lat="44.78357" lon="3.87373">
        <ele>1228.912</ele>
        <time>2012-05-20T10:12:47Z</time>
      </trkpt>
      <trkpt lat="44.78367" lon="3.8739">
        <ele>1230.466</ele>
        <time>2012-05-20T10:13:00Z</time>
      </trkpt>
      <trkpt lat="44.7838" lon="3.87398">
        <ele>1231.105</ele>
        <time>2012-05-20T10:13:12Z</time>
      </trkpt>
      <trkpt lat="44.78386" lon="3.87404">
        <ele>1230.564</ele>
        <time>2012-05-20T10:13:17Z</time>
      </trkpt>
      <trkpt lat="44.78397" lon="3.87413">
        <ele>1230.557</ele>
        <time>2012-05-20T10:13:26Z</time>
      </trkpt>
      <trkpt lat="44.78398" lon="3.87417">
        <ele>1230.768</ele>
        <time>2012-05-20T10:13:28Z</time>
      </trkpt>
      <trkpt lat="44.78406" lon="3.87426">
        <ele>1230.422</ele>
        <time>2012-05-20T10:13:35Z</time>
      </trkpt>
      <trkpt lat="44.78423" lon="3.87452">
        <ele>1231.235</ele>
        <time>2012-05-20T10:13:53Z</time>
      </trkpt>
      <trkpt lat="44.78436" lon="3.87464">
        <ele>1231.239</ele>
        <time>2012-05-20T10:14:04Z</time>
      </trkpt>
      <trkpt lat="44.78441" lon="3.87469">
        <ele>1231.633</ele>
        <time>2012-05-20T10:14:09Z</time>
      </trkpt>
      <trkpt lat="44.78446" lon="3.87474">
        <ele>1233.014</ele>
        <time>2012-05-20T10:14:14Z</time>
      </trkpt>
      <trkpt lat="44.7846" lon="3.87489">
        <ele>1233.451</ele>
        <time>2012-05-20T10:14:27Z</time>
      </trkpt>
      <trkpt lat="44.78479" lon="3.87501">
        <ele>1234.21</ele>
        <time>2012-05-20T10:14:44Z</time>
      </trkpt>
      <trkpt lat="44.78494" lon="3.87509">
        <ele>1234.231</ele>
        <time>2012-05-20T10:14:55Z</time>
      </trkpt>
      <trkpt lat="44.78488" lon="3.87524">
        <ele>1231.273</ele>
        <time>2012-05-20T10:15:06Z</time>
      </trkpt>
      <trkpt lat="44.78487" lon="3.87524">
        <ele>1231.274</ele>
        <time>2012-05-20T10:15:07Z</time>
      </trkpt>
      <trkpt lat="44.78482" lon="3.87527">
        <ele>1230.484</ele>
        <time>2012-05-20T10:15:10Z</time>
      </trkpt>
      <trkpt lat="44.78476" lon="3.87529">
        <ele>1233.371</ele>
        <time>2012-05-20T10:15:14Z</time>
      </trkpt>
      <trkpt lat="44.78446" lon="3.87534">
        <ele>1231.472</ele>
        <time>2012-05-20T10:15:33Z</time>
      </trkpt>
      <trkpt lat="44.78406" lon="3.8754">
        <ele>1228.19</ele>
        <time>2012-05-20T10:15:59Z</time>
      </trkpt>
      <trkpt lat="44.78379" lon="3.87551">
        <ele>1227.217</ele>
        <time>2012-05-20T10:16:20Z</time>
      </trkpt>
      <trkpt lat="44.78353" lon="3.87567">
        <ele>1224.105</ele>
        <time>2012-05-20T10:16:40Z</time>
      </trkpt>
      <trkpt lat="44.78322" lon="3.87592">
        <ele>1222.937</ele>
        <time>2012-05-20T10:17:05Z</time>
      </trkpt>
      <trkpt lat="44.78299" lon="3.87617">
        <ele>1222.002</ele>
        <time>2012-05-20T10:17:25Z</time>
      </trkpt>
      <trkpt lat="44.78269" lon="3.87642">
        <ele>1220.7</ele>
        <time>2012-05-20T10:17:48Z</time>
      </trkpt>
      <trkpt lat="44.7824" lon="3.87658">
        <ele>1220.755</ele>
        <time>2012-05-20T10:18:10Z</time>
      </trkpt>
      <trkpt lat="44.78221" lon="3.87661">
        <ele>1220.848</ele>
        <time>2012-05-20T10:18:23Z</time>
      </trkpt>
      <trkpt lat="44.78207" lon="3.87663">
        <ele>1220.08</ele>
        <time>2012-05-20T10:18:32Z</time>
      </trkpt>
      <trkpt lat="44.78204" lon="3.87664">
        <ele>1219.663</ele>
        <time>2012-05-20T10:18:35Z</time>
      </trkpt>
      <trkpt lat="44.78197" lon="3.87667">
        <ele>1219.497</ele>
        <time>2012-05-20T10:18:40Z</time>
      </trkpt>
      <trkpt lat="44.78179" lon="3.87672">
        <ele>1217.901</ele>
        <time>2012-05-20T10:18:52Z</time>
      </trkpt>
      <trkpt lat="44.7817" lon="3.87677">
        <ele>1217.757</ele>
        <time>2012-05-20T10:19:00Z</time>
      </trkpt>
      <trkpt lat="44.78166" lon="3.87681">
        <ele>1217.408</ele>
        <time>2012-05-20T10:19:04Z</time>
      </trkpt>
      <trkpt lat="44.78161" lon="3.87684">
        <ele>1216.862</ele>
        <time>2012-05-20T10:19:08Z</time>
      </trkpt>
      <trkpt lat="44.78137" lon="3.87691">
        <ele>1214.695</ele>
        <time>2012-05-20T10:19:26Z</time>
      </trkpt>
      <trkpt lat="44.78133" lon="3.87693">
        <ele>1213.762</ele>
        <time>2012-05-20T10:19:30Z</time>
      </trkpt>
      <trkpt lat="44.78123" lon="3.87693">
        <ele>1211.709</ele>
        <time>2012-05-20T10:19:39Z</time>
      </trkpt>
      <trkpt lat="44.78117" lon="3.87695">
        <ele>1211.031</ele>
        <time>2012-05-20T10:19:43Z</time>
      </trkpt>
      <trkpt lat="44.78111" lon="3.87696">
        <ele>1210.413</ele>
        <time>2012-05-20T10:19:47Z</time>
      </trkpt>
      <trkpt lat="44.78086" lon="3.87716">
        <ele>1207.011</ele>
        <time>2012-05-20T10:20:06Z</time>
      </trkpt>
      <trkpt lat="44.78078" lon="3.87724">
        <ele>1205.984</ele>
        <time>2012-05-20T10:20:13Z</time>
      </trkpt>
      <trkpt lat="44.78075" lon="3.87733">
        <ele>1205.827</ele>
        <time>2012-05-20T10:20:18Z</time>
      </trkpt>
      <trkpt lat="44.7807" lon="3.87739">
        <ele>1206.076</ele>
        <time>2012-05-20T10:20:23Z</time>
      </trkpt>
      <trkpt lat="44.78063" lon="3.87745">
        <ele>1205.351</ele>
        <time>2012-05-20T10:20:29Z</time>
      </trkpt>
      <trkpt lat="44.7806" lon="3.8775">
        <ele>1204.99</ele>
        <time>2012-05-20T10:20:33Z</time>
      </trkpt>
      <trkpt lat="44.78057" lon="3.87753">
        <ele>1204.522</ele>
        <time>2012-05-20T10:20:35Z</time>
      </trkpt>
      <trkpt lat="44.78054" lon="3.87756">
        <ele>1204.158</ele>
        <time>2012-05-20T10:20:38Z</time>
      </trkpt>
      <trkpt lat="44.78038" lon="3.8777">
        <ele>1202.026</ele>
        <time>2012-05-20T10:20:51Z</time>
      </trkpt>
      <trkpt lat="44.78033" lon="3.87775">
        <ele>1201.98</ele>
        <time>2012-05-20T10:20:56Z</time>
      </trkpt>
      <trkpt lat="44.78028" lon="3.87778">
        <ele>1201.198</ele>
        <time>2012-05-20T10:21:00Z</time>
      </trkpt>
      <trkpt lat="44.78022" lon="3.87786">
        <ele>1199.767</ele>
        <time>2012-05-20T10:21:06Z</time>
      </trkpt>
      <trkpt lat="44.78019" lon="3.87791">
        <ele>1199.319</ele>
        <time>2012-05-20T10:21:09Z</time>
      </trkpt>
      <trkpt lat="44.78013" lon="3.87799">
        <ele>1198.655</ele>
        <time>2012-05-20T10:21:15Z</time>
      </trkpt>
      <trkpt lat="44.7801" lon="3.87805">
        <ele>1198.527</ele>
        <time>2012-05-20T10:21:19Z</time>
      </trkpt>
      <trkpt lat="44.78007" lon="3.87812">
        <ele>1198.232</ele>
        <time>2012-05-20T10:21:23Z</time>
      </trkpt>
      <trkpt lat="44.77996" lon="3.87837">
        <ele>1197.696</ele>
        <time>2012-05-20T10:21:37Z</time>
      </trkpt>
      <trkpt lat="44.77987" lon="3.87846">
        <ele>1196.725</ele>
        <time>2012-05-20T10:21:45Z</time>
      </trkpt>
      <trkpt lat="44.77981" lon="3.87851">
        <ele>1196.348</ele>
        <time>2012-05-20T10:21:50Z</time>
      </trkpt>
      <trkpt lat="44.77964" lon="3.87861">
        <ele>1194.247</ele>
        <time>2012-05-20T10:22:05Z</time>
      </trkpt>
      <trkpt lat="44.77941" lon="3.87861">
        <ele>1192.743</ele>
        <time>2012-05-20T10:22:19Z</time>
      </trkpt>
      <trkpt lat="44.77938" lon="3.8786">
        <ele>1192.543</ele>
        <time>2012-05-20T10:22:21Z</time>
      </trkpt>
      <trkpt lat="44.7793" lon="3.87858">
        <ele>1191.544</ele>
        <time>2012-05-20T10:22:27Z</time>
      </trkpt>
      <trkpt lat="44.77927" lon="3.87858">
        <ele>1191.035</ele>
        <time>2012-05-20T10:22:29Z</time>
      </trkpt>
      <trkpt lat="44.77923" lon="3.8786">
        <ele>1190.036</ele>
        <time>2012-05-20T10:22:33Z</time>
      </trkpt>
      <trkpt lat="44.77909" lon="3.87864">
        <ele>1188.643</ele>
        <time>2012-05-20T10:22:42Z</time>
      </trkpt>
      <trkpt lat="44.77902" lon="3.87871">
        <ele>1187.822</ele>
        <time>2012-05-20T10:22:48Z</time>
      </trkpt>
      <trkpt lat="44.77894" lon="3.87882">
        <ele>1186.704</ele>
        <time>2012-05-20T10:22:56Z</time>
      </trkpt>
      <trkpt lat="44.77887" lon="3.87895">
        <ele>1185.238</ele>
        <time>2012-05-20T10:23:04Z</time>
      </trkpt>
      <trkpt lat="44.77882" lon="3.87902">
        <ele>1184.363</ele>
        <time>2012-05-20T10:23:09Z</time>
      </trkpt>
      <trkpt lat="44.77879" lon="3.87913">
        <ele>1183.947</ele>
        <time>2012-05-20T10:23:14Z</time>
      </trkpt>
      <trkpt lat="44.77878" lon="3.87917">
        <ele>1183.694</ele>
        <time>2012-05-20T10:23:16Z</time>
      </trkpt>
      <trkpt lat="44.77876" lon="3.87927">
        <ele>1182.733</ele>
        <time>2012-05-20T10:23:21Z</time>
      </trkpt>
      <trkpt lat="44.77871" lon="3.87934">
        <ele>1182.242</ele>
        <time>2012-05-20T10:23:26Z</time>
      </trkpt>
      <trkpt lat="44.77867" lon="3.87941">
        <ele>1181.137</ele>
        <time>2012-05-20T10:23:30Z</time>
      </trkpt>
      <trkpt lat="44.77862" lon="3.87948">
        <ele>1180.724</ele>
        <time>2012-05-20T10:23:35Z</time>
      </trkpt>
      <trkpt lat="44.77852" lon="3.87963">
        <ele>1177.617</ele>
        <time>2012-05-20T10:23:45Z</time>
      </trkpt>
      <trkpt lat="44.77851" lon="3.87964">
        <ele>1177.625</ele>
        <time>2012-05-20T10:23:46Z</time>
      </trkpt>
      <trkpt lat="44.77849" lon="3.87969">
        <ele>1177.466</ele>
        <time>2012-05-20T10:23:48Z</time>
      </trkpt>
      <trkpt lat="44.77847" lon="3.87974">
        <ele>1176.352</ele>
        <time>2012-05-20T10:23:51Z</time>
      </trkpt>
      <trkpt lat="44.77843" lon="3.87981">
        <ele>1175.556</ele>
        <time>2012-05-20T10:23:56Z</time>
      </trkpt>
      <trkpt lat="44.77839" lon="3.87989">
        <ele>1174.766</ele>
        <time>2012-05-20T10:24:01Z</time>
      </trkpt>
      <trkpt lat="44.77836" lon="3.87996">
        <ele>1174.114</ele>
        <time>2012-05-20T10:24:05Z</time>
      </trkpt>
      <trkpt lat="44.77834" lon="3.88002">
        <ele>1173.803</ele>
        <time>2012-05-20T10:24:08Z</time>
      </trkpt>
      <trkpt lat="44.77833" lon="3.88011">
        <ele>1173.533</ele>
        <time>2012-05-20T10:24:12Z</time>
      </trkpt>
      <trkpt lat="44.77829" lon="3.88017">
        <ele>1173.43</ele>
        <time>2012-05-20T10:24:16Z</time>
      </trkpt>
      <trkpt lat="44.77821" lon="3.88033">
        <ele>1170.705</ele>
        <time>2012-05-20T10:24:25Z</time>
      </trkpt>
      <trkpt lat="44.77812" lon="3.88047">
        <ele>1168.886</ele>
        <time>2012-05-20T10:24:34Z</time>
      </trkpt>
      <trkpt lat="44.7781" lon="3.88049">
        <ele>1168.104</ele>
        <time>2012-05-20T10:24:36Z</time>
      </trkpt>
      <trkpt lat="44.77806" lon="3.88053">
        <ele>1167.375</ele>
        <time>2012-05-20T10:24:39Z</time>
      </trkpt>
      <trkpt lat="44.77804" lon="3.88061">
        <ele>1166.825</ele>
        <time>2012-05-20T10:24:43Z</time>
      </trkpt>
      <trkpt lat="44.77799" lon="3.88066">
        <ele>1165.396</ele>
        <time>2012-05-20T10:24:47Z</time>
      </trkpt>
      <trkpt lat="44.77797" lon="3.88068">
        <ele>1164.72</ele>
        <time>2012-05-20T10:24:49Z</time>
      </trkpt>
      <trkpt lat="44.77792" lon="3.8807">
        <ele>1164.315</ele>
        <time>2012-05-20T10:24:52Z</time>
      </trkpt>
      <trkpt lat="44.77785" lon="3.88083">
        <ele>1162.754</ele>
        <time>2012-05-20T10:25:00Z</time>
      </trkpt>
      <trkpt lat="44.77775" lon="3.88092">
        <ele>1161.402</ele>
        <time>2012-05-20T10:25:07Z</time>
      </trkpt>
      <trkpt lat="44.77769" lon="3.881">
        <ele>1160.079</ele>
        <time>2012-05-20T10:25:13Z</time>
      </trkpt>
      <trkpt lat="44.77765" lon="3.88106">
        <ele>1159.958</ele>
        <time>2012-05-20T10:25:17Z</time>
      </trkpt>
      <trkpt lat="44.77761" lon="3.88111">
        <ele>1159.63</ele>
        <time>2012-05-20T10:25:21Z</time>
      </trkpt>
      <trkpt lat="44.77757" lon="3.88117">
        <ele>1159.207</ele>
        <time>2012-05-20T10:25:25Z</time>
      </trkpt>
      <trkpt lat="44.77734" lon="3.88138">
        <ele>1155.451</ele>
        <time>2012-05-20T10:25:43Z</time>
      </trkpt>
      <trkpt lat="44.77725" lon="3.88147">
        <ele>1153.817</ele>
        <time>2012-05-20T10:25:51Z</time>
      </trkpt>
      <trkpt lat="44.77717" lon="3.88156">
        <ele>1153.056</ele>
        <time>2012-05-20T10:25:58Z</time>
      </trkpt>
      <trkpt lat="44.77711" lon="3.88175">
        <ele>1150.925</ele>
        <time>2012-05-20T10:26:08Z</time>
      </trkpt>
      <trkpt lat="44.77703" lon="3.88188">
        <ele>1149.852</ele>
        <time>2012-05-20T10:26:17Z</time>
      </trkpt>
      <trkpt lat="44.77697" lon="3.882">
        <ele>1148.925</ele>
        <time>2012-05-20T10:26:24Z</time>
      </trkpt>
      <trkpt lat="44.77694" lon="3.88206">
        <ele>1148.849</ele>
        <time>2012-05-20T10:26:28Z</time>
      </trkpt>
      <trkpt lat="44.7769" lon="3.88214">
        <ele>1148.587</ele>
        <time>2012-05-20T10:26:33Z</time>
      </trkpt>
      <trkpt lat="44.77684" lon="3.88236">
        <ele>1147.488</ele>
        <time>2012-05-20T10:26:44Z</time>
      </trkpt>
      <trkpt lat="44.77681" lon="3.88246">
        <ele>1147.084</ele>
        <time>2012-05-20T10:26:49Z</time>
      </trkpt>
      <trkpt lat="44.77677" lon="3.88247">
        <ele>1146.68</ele>
        <time>2012-05-20T10:26:51Z</time>
      </trkpt>
      <trkpt lat="44.77668" lon="3.8828">
        <ele>1145.597</ele>
        <time>2012-05-20T10:27:09Z</time>
      </trkpt>
      <trkpt lat="44.77663" lon="3.88293">
        <ele>1145.18</ele>
        <time>2012-05-20T10:27:16Z</time>
      </trkpt>
      <trkpt lat="44.77661" lon="3.88297">
        <ele>1144.828</ele>
        <time>2012-05-20T10:27:18Z</time>
      </trkpt>
      <trkpt lat="44.77657" lon="3.88304">
        <ele>1144.572</ele>
        <time>2012-05-20T10:27:23Z</time>
      </trkpt>
      <trkpt lat="44.77651" lon="3.88306">
        <ele>1143.724</ele>
        <time>2012-05-20T10:27:28Z</time>
      </trkpt>
      <trkpt lat="44.77645" lon="3.88307">
        <ele>1144.552</ele>
        <time>2012-05-20T10:27:32Z</time>
      </trkpt>
      <trkpt lat="44.77622" lon="3.88302">
        <ele>1145.053</ele>
        <time>2012-05-20T10:27:49Z</time>
      </trkpt>
      <trkpt lat="44.7761" lon="3.88289">
        <ele>1144.169</ele>
        <time>2012-05-20T10:28:01Z</time>
      </trkpt>
      <trkpt lat="44.77608" lon="3.88284">
        <ele>1144.439</ele>
        <time>2012-05-20T10:28:42Z</time>
      </trkpt>
      <trkpt lat="44.77603" lon="3.88284">
        <ele>1144.669</ele>
        <time>2012-05-20T10:28:47Z</time>
      </trkpt>
      <trkpt lat="44.776" lon="3.88278">
        <ele>1145.331</ele>
        <time>2012-05-20T10:28:51Z</time>
      </trkpt>
      <trkpt lat="44.77588" lon="3.88256">
        <ele>1145.024</ele>
        <time>2012-05-20T10:29:08Z</time>
      </trkpt>
      <trkpt lat="44.77574" lon="3.88232">
        <ele>1145.864</ele>
        <time>2012-05-20T10:29:28Z</time>
      </trkpt>
      <trkpt lat="44.77549" lon="3.88212">
        <ele>1146.665</ele>
        <time>2012-05-20T10:29:53Z</time>
      </trkpt>
      <trkpt lat="44.77527" lon="3.882">
        <ele>1147.502</ele>
        <time>2012-05-20T10:30:14Z</time>
      </trkpt>
      <trkpt lat="44.77511" lon="3.88199">
        <ele>1147.615</ele>
        <time>2012-05-20T10:30:28Z</time>
      </trkpt>
      <trkpt lat="44.775" lon="3.88202">
        <ele>1147.157</ele>
        <time>2012-05-20T10:30:39Z</time>
      </trkpt>
      <trkpt lat="44.77483" lon="3.88211">
        <ele>1148.74</ele>
        <time>2012-05-20T10:30:55Z</time>
      </trkpt>
      <trkpt lat="44.77473" lon="3.88221">
        <ele>1149.29</ele>
        <time>2012-05-20T10:31:08Z</time>
      </trkpt>
      <trkpt lat="44.77465" lon="3.88228">
        <ele>1149.713</ele>
        <time>2012-05-20T10:31:16Z</time>
      </trkpt>
      <trkpt lat="44.77443" lon="3.88247">
        <ele>1151.973</ele>
        <time>2012-05-20T10:31:41Z</time>
      </trkpt>
      <trkpt lat="44.77428" lon="3.8826">
        <ele>1152.472</ele>
        <time>2012-05-20T10:31:58Z</time>
      </trkpt>
      <trkpt lat="44.77406" lon="3.88282">
        <ele>1153.426</ele>
        <time>2012-05-20T10:32:23Z</time>
      </trkpt>
      <trkpt lat="44.77382" lon="3.88296">
        <ele>1153.79</ele>
        <time>2012-05-20T10:32:46Z</time>
      </trkpt>
      <trkpt lat="44.77367" lon="3.88299">
        <ele>1154.237</ele>
        <time>2012-05-20T10:32:59Z</time>
      </trkpt>
      <trkpt lat="44.77347" lon="3.88299">
        <ele>1154.761</ele>
        <time>2012-05-20T10:33:15Z</time>
      </trkpt>
      <trkpt lat="44.77323" lon="3.88302">
        <ele>1157.511</ele>
        <time>2012-05-20T10:33:36Z</time>
      </trkpt>
      <trkpt lat="44.77303" lon="3.88311">
        <ele>1159.172</ele>
        <time>2012-05-20T10:33:56Z</time>
      </trkpt>
      <trkpt lat="44.7728" lon="3.88317">
        <ele>1160.761</ele>
        <time>2012-05-20T10:34:17Z</time>
      </trkpt>
      <trkpt lat="44.77258" lon="3.88329">
        <ele>1162.204</ele>
        <time>2012-05-20T10:34:38Z</time>
      </trkpt>
      <trkpt lat="44.77255" lon="3.8833">
        <ele>1163.116</ele>
        <time>2012-05-20T10:34:41Z</time>
      </trkpt>
      <trkpt lat="44.77241" lon="3.88336">
        <ele>1163.476</ele>
        <time>2012-05-20T10:34:54Z</time>
      </trkpt>
      <trkpt lat="44.77237" lon="3.88337">
        <ele>1164.134</ele>
        <time>2012-05-20T10:34:58Z</time>
      </trkpt>
      <trkpt lat="44.77219" lon="3.88348">
        <ele>1164.765</ele>
        <time>2012-05-20T10:35:16Z</time>
      </trkpt>
      <trkpt lat="44.77206" lon="3.8835">
        <ele>1165.086</ele>
        <time>2012-05-20T10:35:27Z</time>
      </trkpt>
      <trkpt lat="44.77186" lon="3.88357">
        <ele>1166.786</ele>
        <time>2012-05-20T10:35:47Z</time>
      </trkpt>
      <trkpt lat="44.77179" lon="3.88362">
        <ele>1167.107</ele>
        <time>2012-05-20T10:35:55Z</time>
      </trkpt>
      <trkpt lat="44.77175" lon="3.88362">
        <ele>1167.929</ele>
        <time>2012-05-20T10:36:00Z</time>
      </trkpt>
      <trkpt lat="44.7715" lon="3.88355">
        <ele>1165.883</ele>
        <time>2012-05-20T10:36:22Z</time>
      </trkpt>
      <trkpt lat="44.77127" lon="3.8834">
        <ele>1165.242</ele>
        <time>2012-05-20T10:36:43Z</time>
      </trkpt>
      <trkpt lat="44.77125" lon="3.88341">
        <ele>1164.788</ele>
        <time>2012-05-20T10:36:45Z</time>
      </trkpt>
      <trkpt lat="44.77117" lon="3.88334">
        <ele>1164.431</ele>
        <time>2012-05-20T10:36:53Z</time>
      </trkpt>
      <trkpt lat="44.77112" lon="3.88332">
        <ele>1164.375</ele>
        <time>2012-05-20T10:36:57Z</time>
      </trkpt>
      <trkpt lat="44.77085" lon="3.88316">
        <ele>1162.601</ele>
        <time>2012-05-20T10:37:22Z</time>
      </trkpt>
      <trkpt lat="44.7707" lon="3.88316">
        <ele>1161.773</ele>
        <time>2012-05-20T10:37:32Z</time>
      </trkpt>
      <trkpt lat="44.77067" lon="3.88312">
        <ele>1161.788</ele>
        <time>2012-05-20T10:37:35Z</time>
      </trkpt>
      <trkpt lat="44.77062" lon="3.8831">
        <ele>1161.785</ele>
        <time>2012-05-20T10:37:39Z</time>
      </trkpt>
      <trkpt lat="44.77055" lon="3.88307">
        <ele>1161.325</ele>
        <time>2012-05-20T10:37:44Z</time>
      </trkpt>
      <trkpt lat="44.77053" lon="3.88304">
        <ele>1160.928</ele>
        <time>2012-05-20T10:37:47Z</time>
      </trkpt>
      <trkpt lat="44.7705" lon="3.88305">
        <ele>1161.18</ele>
        <time>2012-05-20T10:37:49Z</time>
      </trkpt>
      <trkpt lat="44.77049" lon="3.88306">
        <ele>1160.697</ele>
        <time>2012-05-20T10:37:51Z</time>
      </trkpt>
      <trkpt lat="44.7704" lon="3.8831">
        <ele>1160.519</ele>
        <time>2012-05-20T10:37:59Z</time>
      </trkpt>
      <trkpt lat="44.77037" lon="3.88312">
        <ele>1160.317</ele>
        <time>2012-05-20T10:38:01Z</time>
      </trkpt>
      <trkpt lat="44.77028" lon="3.88321">
        <ele>1160.35</ele>
        <time>2012-05-20T10:38:09Z</time>
      </trkpt>
      <trkpt lat="44.77017" lon="3.88321">
        <ele>1159.881</ele>
        <time>2012-05-20T10:38:17Z</time>
      </trkpt>
      <trkpt lat="44.77015" lon="3.88321">
        <ele>1159.796</ele>
        <time>2012-05-20T10:38:19Z</time>
      </trkpt>
      <trkpt lat="44.77008" lon="3.88324">
        <ele>1159.603</ele>
        <time>2012-05-20T10:38:27Z</time>
      </trkpt>
      <trkpt lat="44.76998" lon="3.88317">
        <ele>1159.296</ele>
        <time>2012-05-20T10:38:35Z</time>
      </trkpt>
      <trkpt lat="44.76995" lon="3.88317">
        <ele>1158.885</ele>
        <time>2012-05-20T10:38:39Z</time>
      </trkpt>
      <trkpt lat="44.76991" lon="3.88317">
        <ele>1159.287</ele>
        <time>2012-05-20T10:38:43Z</time>
      </trkpt>
      <trkpt lat="44.76972" lon="3.88311">
        <ele>1157.883</ele>
        <time>2012-05-20T10:39:01Z</time>
      </trkpt>
      <trkpt lat="44.76965" lon="3.88306">
        <ele>1157.115</ele>
        <time>2012-05-20T10:39:07Z</time>
      </trkpt>
      <trkpt lat="44.76961" lon="3.88301">
        <ele>1155.57</ele>
        <time>2012-05-20T10:39:11Z</time>
      </trkpt>
      <trkpt lat="44.76955" lon="3.88297">
        <ele>1155.992</ele>
        <time>2012-05-20T10:39:16Z</time>
      </trkpt>
      <trkpt lat="44.76941" lon="3.88271">
        <ele>1153.613</ele>
        <time>2012-05-20T10:39:32Z</time>
      </trkpt>
      <trkpt lat="44.76941" lon="3.88269">
        <ele>1153.483</ele>
        <time>2012-05-20T10:39:49Z</time>
      </trkpt>
      <trkpt lat="44.7692" lon="3.8829">
        <ele>1154.084</ele>
        <time>2012-05-20T10:41:43Z</time>
      </trkpt>
      <trkpt lat="44.76925" lon="3.88238">
        <ele>1157.095</ele>
        <time>2012-05-20T12:05:27Z</time>
      </trkpt>
      <trkpt lat="44.76909" lon="3.88228">
        <ele>1155.66</ele>
        <time>2012-05-20T12:05:42Z</time>
      </trkpt>
      <trkpt lat="44.76904" lon="3.88221">
        <ele>1153.076</ele>
        <time>2012-05-20T12:05:50Z</time>
      </trkpt>
      <trkpt lat="44.769" lon="3.88216">
        <ele>1153.226</ele>
        <time>2012-05-20T12:05:59Z</time>
      </trkpt>
      <trkpt lat="44.76897" lon="3.8822">
        <ele>1153.035</ele>
        <time>2012-05-20T12:06:01Z</time>
      </trkpt>
      <trkpt lat="44.76895" lon="3.88222">
        <ele>1152.229</ele>
        <time>2012-05-20T12:06:03Z</time>
      </trkpt>
      <trkpt lat="44.76884" lon="3.88232">
        <ele>1152.25</ele>
        <time>2012-05-20T12:06:14Z</time>
      </trkpt>
      <trkpt lat="44.76855" lon="3.88239">
        <ele>1150.982</ele>
        <time>2012-05-20T12:06:33Z</time>
      </trkpt>
      <trkpt lat="44.7685" lon="3.88242">
        <ele>1151.215</ele>
        <time>2012-05-20T12:06:42Z</time>
      </trkpt>
      <trkpt lat="44.76834" lon="3.88256">
        <ele>1150.483</ele>
        <time>2012-05-20T12:06:58Z</time>
      </trkpt>
      <trkpt lat="44.76824" lon="3.88256">
        <ele>1149.363</ele>
        <time>2012-05-20T12:07:11Z</time>
      </trkpt>
      <trkpt lat="44.76822" lon="3.88254">
        <ele>1149.426</ele>
        <time>2012-05-20T12:07:14Z</time>
      </trkpt>
      <trkpt lat="44.76818" lon="3.88256">
        <ele>1148.78</ele>
        <time>2012-05-20T12:07:19Z</time>
      </trkpt>
      <trkpt lat="44.76813" lon="3.88261">
        <ele>1147.999</ele>
        <time>2012-05-20T12:07:24Z</time>
      </trkpt>
      <trkpt lat="44.7681" lon="3.88261">
        <ele>1147.675</ele>
        <time>2012-05-20T12:07:27Z</time>
      </trkpt>
      <trkpt lat="44.76793" lon="3.88268">
        <ele>1146.368</ele>
        <time>2012-05-20T12:07:44Z</time>
      </trkpt>
      <trkpt lat="44.76791" lon="3.88283">
        <ele>1144.201</ele>
        <time>2012-05-20T12:08:01Z</time>
      </trkpt>
      <trkpt lat="44.76773" lon="3.8829">
        <ele>1143.028</ele>
        <time>2012-05-20T12:08:15Z</time>
      </trkpt>
      <trkpt lat="44.76754" lon="3.883">
        <ele>1141.045</ele>
        <time>2012-05-20T12:08:31Z</time>
      </trkpt>
      <trkpt lat="44.76747" lon="3.88305">
        <ele>1139.597</ele>
        <time>2012-05-20T12:08:39Z</time>
      </trkpt>
      <trkpt lat="44.76738" lon="3.88313">
        <ele>1138.099</ele>
        <time>2012-05-20T12:08:49Z</time>
      </trkpt>
      <trkpt lat="44.76728" lon="3.88311">
        <ele>1136.839</ele>
        <time>2012-05-20T12:09:01Z</time>
      </trkpt>
      <trkpt lat="44.76716" lon="3.88309">
        <ele>1134.928</ele>
        <time>2012-05-20T12:09:13Z</time>
      </trkpt>
      <trkpt lat="44.76701" lon="3.88312">
        <ele>1133.493</ele>
        <time>2012-05-20T12:09:27Z</time>
      </trkpt>
      <trkpt lat="44.76685" lon="3.88303">
        <ele>1131.1</ele>
        <time>2012-05-20T12:09:45Z</time>
      </trkpt>
      <trkpt lat="44.76666" lon="3.88317">
        <ele>1130.729</ele>
        <time>2012-05-20T12:09:58Z</time>
      </trkpt>
      <trkpt lat="44.76663" lon="3.88323">
        <ele>1130.666</ele>
        <time>2012-05-20T12:10:02Z</time>
      </trkpt>
      <trkpt lat="44.76663" lon="3.88326">
        <ele>1130.635</ele>
        <time>2012-05-20T12:10:06Z</time>
      </trkpt>
      <trkpt lat="44.76661" lon="3.88322">
        <ele>1131.115</ele>
        <time>2012-05-20T12:10:09Z</time>
      </trkpt>
      <trkpt lat="44.76649" lon="3.88317">
        <ele>1131.134</ele>
        <time>2012-05-20T12:10:24Z</time>
      </trkpt>
      <trkpt lat="44.76642" lon="3.88313">
        <ele>1131.217</ele>
        <time>2012-05-20T12:10:30Z</time>
      </trkpt>
      <trkpt lat="44.76633" lon="3.88304">
        <ele>1131.474</ele>
        <time>2012-05-20T12:10:41Z</time>
      </trkpt>
      <trkpt lat="44.76625" lon="3.88302">
        <ele>1130.548</ele>
        <time>2012-05-20T12:10:48Z</time>
      </trkpt>
      <trkpt lat="44.76607" lon="3.88291">
        <ele>1130.088</ele>
        <time>2012-05-20T12:11:06Z</time>
      </trkpt>
      <trkpt lat="44.76582" lon="3.88277">
        <ele>1129.303</ele>
        <time>2012-05-20T12:11:28Z</time>
      </trkpt>
      <trkpt lat="44.7656" lon="3.88262">
        <ele>1127.004</ele>
        <time>2012-05-20T12:11:50Z</time>
      </trkpt>
      <trkpt lat="44.76534" lon="3.88245">
        <ele>1124.441</ele>
        <time>2012-05-20T12:12:14Z</time>
      </trkpt>
      <trkpt lat="44.76531" lon="3.88244">
        <ele>1124.143</ele>
        <time>2012-05-20T12:12:17Z</time>
      </trkpt>
      <trkpt lat="44.76529" lon="3.88242">
        <ele>1124.321</ele>
        <time>2012-05-20T12:12:19Z</time>
      </trkpt>
      <trkpt lat="44.76527" lon="3.8824">
        <ele>1123.665</ele>
        <time>2012-05-20T12:12:21Z</time>
      </trkpt>
      <trkpt lat="44.76524" lon="3.88237">
        <ele>1123.872</ele>
        <time>2012-05-20T12:12:24Z</time>
      </trkpt>
      <trkpt lat="44.76521" lon="3.88234">
        <ele>1124.071</ele>
        <time>2012-05-20T12:12:27Z</time>
      </trkpt>
      <trkpt lat="44.76519" lon="3.88233">
        <ele>1123.046</ele>
        <time>2012-05-20T12:12:29Z</time>
      </trkpt>
      <trkpt lat="44.76498" lon="3.88221">
        <ele>1121.51</ele>
        <time>2012-05-20T12:12:47Z</time>
      </trkpt>
      <trkpt lat="44.76472" lon="3.88209">
        <ele>1119.704</ele>
        <time>2012-05-20T12:13:10Z</time>
      </trkpt>
      <trkpt lat="44.76444" lon="3.88197">
        <ele>1116.746</ele>
        <time>2012-05-20T12:13:35Z</time>
      </trkpt>
      <trkpt lat="44.76414" lon="3.88182">
        <ele>1115.313</ele>
        <time>2012-05-20T12:14:01Z</time>
      </trkpt>
      <trkpt lat="44.76389" lon="3.88175">
        <ele>1113.645</ele>
        <time>2012-05-20T12:14:23Z</time>
      </trkpt>
      <trkpt lat="44.76366" lon="3.88164">
        <ele>1112.013</ele>
        <time>2012-05-20T12:14:43Z</time>
      </trkpt>
      <trkpt lat="44.76345" lon="3.88151">
        <ele>1110.574</ele>
        <time>2012-05-20T12:15:03Z</time>
      </trkpt>
      <trkpt lat="44.76332" lon="3.8814">
        <ele>1109.386</ele>
        <time>2012-05-20T12:15:20Z</time>
      </trkpt>
      <trkpt lat="44.76315" lon="3.88128">
        <ele>1108.6</ele>
        <time>2012-05-20T12:15:36Z</time>
      </trkpt>
      <trkpt lat="44.7629" lon="3.88107">
        <ele>1106.33</ele>
        <time>2012-05-20T12:16:01Z</time>
      </trkpt>
      <trkpt lat="44.7627" lon="3.88089">
        <ele>1104.342</ele>
        <time>2012-05-20T12:16:21Z</time>
      </trkpt>
      <trkpt lat="44.76252" lon="3.88074">
        <ele>1102.492</ele>
        <time>2012-05-20T12:16:40Z</time>
      </trkpt>
      <trkpt lat="44.7623" lon="3.88053">
        <ele>1100.649</ele>
        <time>2012-05-20T12:17:02Z</time>
      </trkpt>
      <trkpt lat="44.7621" lon="3.88035">
        <ele>1099.271</ele>
        <time>2012-05-20T12:17:23Z</time>
      </trkpt>
      <trkpt lat="44.76196" lon="3.88021">
        <ele>1097.625</ele>
        <time>2012-05-20T12:17:38Z</time>
      </trkpt>
      <trkpt lat="44.76177" lon="3.87997">
        <ele>1095.293</ele>
        <time>2012-05-20T12:17:59Z</time>
      </trkpt>
      <trkpt lat="44.76164" lon="3.87963">
        <ele>1092.709</ele>
        <time>2012-05-20T12:18:21Z</time>
      </trkpt>
      <trkpt lat="44.76159" lon="3.87942">
        <ele>1089.503</ele>
        <time>2012-05-20T12:18:41Z</time>
      </trkpt>
      <trkpt lat="44.76154" lon="3.87931">
        <ele>1089.189</ele>
        <time>2012-05-20T12:18:59Z</time>
      </trkpt>
      <trkpt lat="44.76139" lon="3.87903">
        <ele>1087.157</ele>
        <time>2012-05-20T12:19:20Z</time>
      </trkpt>
      <trkpt lat="44.7613" lon="3.87873">
        <ele>1084.078</ele>
        <time>2012-05-20T12:19:39Z</time>
      </trkpt>
      <trkpt lat="44.76121" lon="3.87835">
        <ele>1080.96</ele>
        <time>2012-05-20T12:20:02Z</time>
      </trkpt>
      <trkpt lat="44.76106" lon="3.87807">
        <ele>1078.995</ele>
        <time>2012-05-20T12:20:23Z</time>
      </trkpt>
      <trkpt lat="44.76101" lon="3.87801">
        <ele>1077.765</ele>
        <time>2012-05-20T12:20:29Z</time>
      </trkpt>
      <trkpt lat="44.76099" lon="3.87799">
        <ele>1077.71</ele>
        <time>2012-05-20T12:20:31Z</time>
      </trkpt>
      <trkpt lat="44.76096" lon="3.87795">
        <ele>1077.711</ele>
        <time>2012-05-20T12:20:35Z</time>
      </trkpt>
      <trkpt lat="44.76083" lon="3.87768">
        <ele>1076.915</ele>
        <time>2012-05-20T12:20:55Z</time>
      </trkpt>
      <trkpt lat="44.76065" lon="3.87729">
        <ele>1076.537</ele>
        <time>2012-05-20T12:21:20Z</time>
      </trkpt>
      <trkpt lat="44.76044" lon="3.87692">
        <ele>1075.529</ele>
        <time>2012-05-20T12:21:47Z</time>
      </trkpt>
      <trkpt lat="44.76037" lon="3.87684">
        <ele>1075.696</ele>
        <time>2012-05-20T12:21:55Z</time>
      </trkpt>
      <trkpt lat="44.76033" lon="3.87678">
        <ele>1075.384</ele>
        <time>2012-05-20T12:21:59Z</time>
      </trkpt>
      <trkpt lat="44.76029" lon="3.87672">
        <ele>1075.499</ele>
        <time>2012-05-20T12:22:37Z</time>
      </trkpt>
      <trkpt lat="44.76025" lon="3.87656">
        <ele>1074.76</ele>
        <time>2012-05-20T12:23:04Z</time>
      </trkpt>
      <trkpt lat="44.76019" lon="3.87639">
        <ele>1074.314</ele>
        <time>2012-05-20T12:23:17Z</time>
      </trkpt>
      <trkpt lat="44.76009" lon="3.87596">
        <ele>1073.373</ele>
        <time>2012-05-20T12:23:41Z</time>
      </trkpt>
      <trkpt lat="44.75996" lon="3.87552">
        <ele>1071.171</ele>
        <time>2012-05-20T12:24:08Z</time>
      </trkpt>
      <trkpt lat="44.75991" lon="3.87522">
        <ele>1068.781</ele>
        <time>2012-05-20T12:24:27Z</time>
      </trkpt>
      <trkpt lat="44.75991" lon="3.87516">
        <ele>1068.721</ele>
        <time>2012-05-20T12:24:30Z</time>
      </trkpt>
      <trkpt lat="44.75974" lon="3.87482">
        <ele>1065.329</ele>
        <time>2012-05-20T12:24:55Z</time>
      </trkpt>
      <trkpt lat="44.7597" lon="3.87482">
        <ele>1064.692</ele>
        <time>2012-05-20T12:25:21Z</time>
      </trkpt>
      <trkpt lat="44.7597" lon="3.87474">
        <ele>1064.357</ele>
        <time>2012-05-20T12:25:26Z</time>
      </trkpt>
      <trkpt lat="44.75946" lon="3.87453">
        <ele>1061.287</ele>
        <time>2012-05-20T12:25:47Z</time>
      </trkpt>
      <trkpt lat="44.75919" lon="3.87432">
        <ele>1057.923</ele>
        <time>2012-05-20T12:26:10Z</time>
      </trkpt>
      <trkpt lat="44.75895" lon="3.87411">
        <ele>1055.516</ele>
        <time>2012-05-20T12:26:31Z</time>
      </trkpt>
      <trkpt lat="44.75874" lon="3.87392">
        <ele>1052.813</ele>
        <time>2012-05-20T12:26:49Z</time>
      </trkpt>
      <trkpt lat="44.75849" lon="3.8737">
        <ele>1050.133</ele>
        <time>2012-05-20T12:27:10Z</time>
      </trkpt>
      <trkpt lat="44.7582" lon="3.87348">
        <ele>1046.945</ele>
        <time>2012-05-20T12:27:33Z</time>
      </trkpt>
      <trkpt lat="44.7579" lon="3.87325">
        <ele>1043.836</ele>
        <time>2012-05-20T12:27:59Z</time>
      </trkpt>
      <trkpt lat="44.75783" lon="3.87321">
        <ele>1043.479</ele>
        <time>2012-05-20T12:28:05Z</time>
      </trkpt>
      <trkpt lat="44.75759" lon="3.87301">
        <ele>1041.734</ele>
        <time>2012-05-20T12:28:26Z</time>
      </trkpt>
      <trkpt lat="44.75735" lon="3.87285">
        <ele>1040.431</ele>
        <time>2012-05-20T12:28:46Z</time>
      </trkpt>
      <trkpt lat="44.75701" lon="3.8726">
        <ele>1037.495</ele>
        <time>2012-05-20T12:29:17Z</time>
      </trkpt>
      <trkpt lat="44.75676" lon="3.87238">
        <ele>1035.451</ele>
        <time>2012-05-20T12:29:40Z</time>
      </trkpt>
      <trkpt lat="44.75649" lon="3.87212">
        <ele>1032.556</ele>
        <time>2012-05-20T12:30:06Z</time>
      </trkpt>
      <trkpt lat="44.75627" lon="3.87186">
        <ele>1031.786</ele>
        <time>2012-05-20T12:30:29Z</time>
      </trkpt>
      <trkpt lat="44.75606" lon="3.87156">
        <ele>1030.449</ele>
        <time>2012-05-20T12:30:53Z</time>
      </trkpt>
      <trkpt lat="44.75585" lon="3.87128">
        <ele>1029.717</ele>
        <time>2012-05-20T12:31:16Z</time>
      </trkpt>
      <trkpt lat="44.7557" lon="3.87107">
        <ele>1028.88</ele>
        <time>2012-05-20T12:31:34Z</time>
      </trkpt>
      <trkpt lat="44.75564" lon="3.871">
        <ele>1028.36</ele>
        <time>2012-05-20T12:31:40Z</time>
      </trkpt>
      <trkpt lat="44.75558" lon="3.87092">
        <ele>1028.096</ele>
        <time>2012-05-20T12:31:47Z</time>
      </trkpt>
      <trkpt lat="44.75557" lon="3.87089">
        <ele>1028.067</ele>
        <time>2012-05-20T12:31:49Z</time>
      </trkpt>
      <trkpt lat="44.7553" lon="3.87052">
        <ele>1025.87</ele>
        <time>2012-05-20T12:32:15Z</time>
      </trkpt>
      <trkpt lat="44.75513" lon="3.8702">
        <ele>1024.647</ele>
        <time>2012-05-20T12:32:36Z</time>
      </trkpt>
      <trkpt lat="44.75502" lon="3.86968">
        <ele>1023.827</ele>
        <time>2012-05-20T12:33:03Z</time>
      </trkpt>
      <trkpt lat="44.75481" lon="3.86925">
        <ele>1022.711</ele>
        <time>2012-05-20T12:33:28Z</time>
      </trkpt>
      <trkpt lat="44.75461" lon="3.86887">
        <ele>1021.735</ele>
        <time>2012-05-20T12:33:55Z</time>
      </trkpt>
      <trkpt lat="44.75438" lon="3.86853">
        <ele>1021.013</ele>
        <time>2012-05-20T12:34:20Z</time>
      </trkpt>
      <trkpt lat="44.75412" lon="3.86816">
        <ele>1020.16</ele>
        <time>2012-05-20T12:34:47Z</time>
      </trkpt>
      <trkpt lat="44.75388" lon="3.8679">
        <ele>1020.917</ele>
        <time>2012-05-20T12:35:08Z</time>
      </trkpt>
      <trkpt lat="44.75379" lon="3.86782">
        <ele>1020.613</ele>
        <time>2012-05-20T12:35:22Z</time>
      </trkpt>
      <trkpt lat="44.75354" lon="3.86763">
        <ele>1019.925</ele>
        <time>2012-05-20T12:35:43Z</time>
      </trkpt>
      <trkpt lat="44.75322" lon="3.86734">
        <ele>1020.057</ele>
        <time>2012-05-20T12:36:11Z</time>
      </trkpt>
      <trkpt lat="44.75295" lon="3.86701">
        <ele>1019.789</ele>
        <time>2012-05-20T12:36:38Z</time>
      </trkpt>
      <trkpt lat="44.75273" lon="3.86671">
        <ele>1020.233</ele>
        <time>2012-05-20T12:37:04Z</time>
      </trkpt>
      <trkpt lat="44.75268" lon="3.86662">
        <ele>1020.147</ele>
        <time>2012-05-20T12:37:12Z</time>
      </trkpt>
      <trkpt lat="44.75246" lon="3.86629">
        <ele>1020.255</ele>
        <time>2012-05-20T12:37:37Z</time>
      </trkpt>
      <trkpt lat="44.75224" lon="3.86599">
        <ele>1020.864</ele>
        <time>2012-05-20T12:38:02Z</time>
      </trkpt>
      <trkpt lat="44.7522" lon="3.86596">
        <ele>1021.271</ele>
        <time>2012-05-20T12:38:09Z</time>
      </trkpt>
      <trkpt lat="44.75207" lon="3.86572">
        <ele>1021.526</ele>
        <time>2012-05-20T12:38:25Z</time>
      </trkpt>
      <trkpt lat="44.75201" lon="3.86557">
        <ele>1021.328</ele>
        <time>2012-05-20T12:38:35Z</time>
      </trkpt>
      <trkpt lat="44.75186" lon="3.86528">
        <ele>1021.528</ele>
        <time>2012-05-20T12:38:55Z</time>
      </trkpt>
      <trkpt lat="44.75168" lon="3.86501">
        <ele>1022.36</ele>
        <time>2012-05-20T12:39:16Z</time>
      </trkpt>
      <trkpt lat="44.75162" lon="3.8649">
        <ele>1023.142</ele>
        <time>2012-05-20T12:39:24Z</time>
      </trkpt>
      <trkpt lat="44.7516" lon="3.86483">
        <ele>1022.71</ele>
        <time>2012-05-20T12:39:28Z</time>
      </trkpt>
      <trkpt lat="44.75158" lon="3.86481">
        <ele>1023.083</ele>
        <time>2012-05-20T12:39:31Z</time>
      </trkpt>
      <trkpt lat="44.75143" lon="3.86447">
        <ele>1023.43</ele>
        <time>2012-05-20T12:39:53Z</time>
      </trkpt>
      <trkpt lat="44.75125" lon="3.86404">
        <ele>1022.325</ele>
        <time>2012-05-20T12:40:20Z</time>
      </trkpt>
      <trkpt lat="44.75111" lon="3.86369">
        <ele>1021.452</ele>
        <time>2012-05-20T12:40:44Z</time>
      </trkpt>
      <trkpt lat="44.75088" lon="3.86343">
        <ele>1020.043</ele>
        <time>2012-05-20T12:41:07Z</time>
      </trkpt>
      <trkpt lat="44.75079" lon="3.86333">
        <ele>1020.351</ele>
        <time>2012-05-20T12:41:15Z</time>
      </trkpt>
      <trkpt lat="44.75059" lon="3.86306">
        <ele>1019.553</ele>
        <time>2012-05-20T12:41:35Z</time>
      </trkpt>
      <trkpt lat="44.75036" lon="3.86279">
        <ele>1018.966</ele>
        <time>2012-05-20T12:41:56Z</time>
      </trkpt>
      <trkpt lat="44.75007" lon="3.86247">
        <ele>1017.459</ele>
        <time>2012-05-20T12:42:23Z</time>
      </trkpt>
      <trkpt lat="44.74982" lon="3.86216">
        <ele>1017.036</ele>
        <time>2012-05-20T12:42:49Z</time>
      </trkpt>
      <trkpt lat="44.74969" lon="3.86205">
        <ele>1016.399</ele>
        <time>2012-05-20T12:43:02Z</time>
      </trkpt>
      <trkpt lat="44.74967" lon="3.86203">
        <ele>1016.148</ele>
        <time>2012-05-20T12:43:04Z</time>
      </trkpt>
      <trkpt lat="44.74945" lon="3.86195">
        <ele>1015.698</ele>
        <time>2012-05-20T12:43:21Z</time>
      </trkpt>
      <trkpt lat="44.74933" lon="3.86193">
        <ele>1015.151</ele>
        <time>2012-05-20T12:43:29Z</time>
      </trkpt>
      <trkpt lat="44.74924" lon="3.86187">
        <ele>1014.294</ele>
        <time>2012-05-20T12:43:38Z</time>
      </trkpt>
      <trkpt lat="44.74903" lon="3.86179">
        <ele>1013.985</ele>
        <time>2012-05-20T12:43:55Z</time>
      </trkpt>
      <trkpt lat="44.74882" lon="3.86173">
        <ele>1012.356</ele>
        <time>2012-05-20T12:44:13Z</time>
      </trkpt>
      <trkpt lat="44.74879" lon="3.86171">
        <ele>1012.159</ele>
        <time>2012-05-20T12:44:15Z</time>
      </trkpt>
      <trkpt lat="44.74875" lon="3.86168">
        <ele>1011.316</ele>
        <time>2012-05-20T12:44:22Z</time>
      </trkpt>
      <trkpt lat="44.74853" lon="3.8616">
        <ele>1009.807</ele>
        <time>2012-05-20T12:44:41Z</time>
      </trkpt>
      <trkpt lat="44.74833" lon="3.86152">
        <ele>1007.814</ele>
        <time>2012-05-20T12:44:58Z</time>
      </trkpt>
      <trkpt lat="44.74812" lon="3.86139">
        <ele>1006.06</ele>
        <time>2012-05-20T12:45:17Z</time>
      </trkpt>
      <trkpt lat="44.748" lon="3.86132">
        <ele>1004.305</ele>
        <time>2012-05-20T12:45:31Z</time>
      </trkpt>
      <trkpt lat="44.74777" lon="3.86119">
        <ele>1001.819</ele>
        <time>2012-05-20T12:45:52Z</time>
      </trkpt>
      <trkpt lat="44.74752" lon="3.86099">
        <ele>999.039</ele>
        <time>2012-05-20T12:46:15Z</time>
      </trkpt>
      <trkpt lat="44.74735" lon="3.8608">
        <ele>996.038</ele>
        <time>2012-05-20T12:46:33Z</time>
      </trkpt>
      <trkpt lat="44.74727" lon="3.86068">
        <ele>995.213</ele>
        <time>2012-05-20T12:46:42Z</time>
      </trkpt>
      <trkpt lat="44.74715" lon="3.86055">
        <ele>993.564</ele>
        <time>2012-05-20T12:46:55Z</time>
      </trkpt>
      <trkpt lat="44.74694" lon="3.86039">
        <ele>990.866</ele>
        <time>2012-05-20T12:47:15Z</time>
      </trkpt>
      <trkpt lat="44.74676" lon="3.86023">
        <ele>988.687</ele>
        <time>2012-05-20T12:47:33Z</time>
      </trkpt>
      <trkpt lat="44.74671" lon="3.86019">
        <ele>988.835</ele>
        <time>2012-05-20T12:47:38Z</time>
      </trkpt>
      <trkpt lat="44.74665" lon="3.86016">
        <ele>987.955</ele>
        <time>2012-05-20T12:47:43Z</time>
      </trkpt>
      <trkpt lat="44.74646" lon="3.85996">
        <ele>986.059</ele>
        <time>2012-05-20T12:48:02Z</time>
      </trkpt>
      <trkpt lat="44.74642" lon="3.85992">
        <ele>985.185</ele>
        <time>2012-05-20T12:48:07Z</time>
      </trkpt>
      <trkpt lat="44.74634" lon="3.85985">
        <ele>985.013</ele>
        <time>2012-05-20T12:48:14Z</time>
      </trkpt>
      <trkpt lat="44.74614" lon="3.85972">
        <ele>982.935</ele>
        <time>2012-05-20T12:48:33Z</time>
      </trkpt>
      <trkpt lat="44.74608" lon="3.85968">
        <ele>982.47</ele>
        <time>2012-05-20T12:48:38Z</time>
      </trkpt>
      <trkpt lat="44.74596" lon="3.85958">
        <ele>981.663</ele>
        <time>2012-05-20T12:48:50Z</time>
      </trkpt>
      <trkpt lat="44.74578" lon="3.85944">
        <ele>981.43</ele>
        <time>2012-05-20T12:49:07Z</time>
      </trkpt>
      <trkpt lat="44.74573" lon="3.85942">
        <ele>981.055</ele>
        <time>2012-05-20T12:49:12Z</time>
      </trkpt>
      <trkpt lat="44.74571" lon="3.8594">
        <ele>981.117</ele>
        <time>2012-05-20T12:49:14Z</time>
      </trkpt>
      <trkpt lat="44.74545" lon="3.8594">
        <ele>980.835</ele>
        <time>2012-05-20T12:49:36Z</time>
      </trkpt>
      <trkpt lat="44.74519" lon="3.85963">
        <ele>980.764</ele>
        <time>2012-05-20T12:49:58Z</time>
      </trkpt>
      <trkpt lat="44.7449" lon="3.85992">
        <ele>980.14</ele>
        <time>2012-05-20T12:50:26Z</time>
      </trkpt>
      <trkpt lat="44.74459" lon="3.86009">
        <ele>979.341</ele>
        <time>2012-05-20T12:50:53Z</time>
      </trkpt>
      <trkpt lat="44.74427" lon="3.86014">
        <ele>978.69</ele>
        <time>2012-05-20T12:51:19Z</time>
      </trkpt>
      <trkpt lat="44.74399" lon="3.86007">
        <ele>978.423</ele>
        <time>2012-05-20T12:51:42Z</time>
      </trkpt>
      <trkpt lat="44.74371" lon="3.86">
        <ele>978.331</ele>
        <time>2012-05-20T12:52:05Z</time>
      </trkpt>
      <trkpt lat="44.74341" lon="3.85992">
        <ele>977.579</ele>
        <time>2012-05-20T12:52:29Z</time>
      </trkpt>
      <trkpt lat="44.74314" lon="3.85984">
        <ele>977.639</ele>
        <time>2012-05-20T12:52:51Z</time>
      </trkpt>
      <trkpt lat="44.74295" lon="3.85975">
        <ele>977.071</ele>
        <time>2012-05-20T12:53:09Z</time>
      </trkpt>
      <trkpt lat="44.74293" lon="3.85975">
        <ele>977.025</ele>
        <time>2012-05-20T12:53:11Z</time>
      </trkpt>
      <trkpt lat="44.74271" lon="3.85967">
        <ele>974.405</ele>
        <time>2012-05-20T12:53:30Z</time>
      </trkpt>
      <trkpt lat="44.74246" lon="3.85951">
        <ele>971.846</ele>
        <time>2012-05-20T12:53:54Z</time>
      </trkpt>
      <trkpt lat="44.74227" lon="3.85933">
        <ele>970.75</ele>
        <time>2012-05-20T12:54:13Z</time>
      </trkpt>
      <trkpt lat="44.74207" lon="3.85902">
        <ele>969.175</ele>
        <time>2012-05-20T12:54:38Z</time>
      </trkpt>
      <trkpt lat="44.742" lon="3.8589">
        <ele>968.538</ele>
        <time>2012-05-20T12:54:48Z</time>
      </trkpt>
      <trkpt lat="44.74197" lon="3.8588">
        <ele>967.917</ele>
        <time>2012-05-20T12:54:54Z</time>
      </trkpt>
      <trkpt lat="44.74186" lon="3.85832">
        <ele>965.302</ele>
        <time>2012-05-20T12:55:22Z</time>
      </trkpt>
      <trkpt lat="44.74185" lon="3.85826">
        <ele>964.932</ele>
        <time>2012-05-20T12:55:26Z</time>
      </trkpt>
      <trkpt lat="44.74181" lon="3.85779">
        <ele>962.88</ele>
        <time>2012-05-20T12:55:53Z</time>
      </trkpt>
      <trkpt lat="44.74181" lon="3.85774">
        <ele>963.077</ele>
        <time>2012-05-20T12:55:55Z</time>
      </trkpt>
      <trkpt lat="44.74172" lon="3.85763">
        <ele>961.825</ele>
        <time>2012-05-20T12:56:08Z</time>
      </trkpt>
      <trkpt lat="44.74169" lon="3.85756">
        <ele>961.991</ele>
        <time>2012-05-20T12:56:27Z</time>
      </trkpt>
      <trkpt lat="44.74161" lon="3.8575">
        <ele>961.579</ele>
        <time>2012-05-20T12:57:31Z</time>
      </trkpt>
      <trkpt lat="44.74161" lon="3.85747">
        <ele>961.113</ele>
        <time>2012-05-20T12:57:54Z</time>
      </trkpt>
      <trkpt lat="44.74161" lon="3.85749">
        <ele>961.229</ele>
        <time>2012-05-20T12:59:01Z</time>
      </trkpt>
      <trkpt lat="44.74159" lon="3.85748">
        <ele>961.385</ele>
        <time>2012-05-20T12:59:27Z</time>
      </trkpt>
      <trkpt lat="44.74142" lon="3.85729">
        <ele>960.221</ele>
        <time>2012-05-20T12:59:46Z</time>
      </trkpt>
      <trkpt lat="44.74117" lon="3.85713">
        <ele>957.499</ele>
        <time>2012-05-20T13:00:11Z</time>
      </trkpt>
      <trkpt lat="44.74094" lon="3.85701">
        <ele>955.133</ele>
        <time>2012-05-20T13:00:31Z</time>
      </trkpt>
      <trkpt lat="44.74073" lon="3.85685">
        <ele>952.011</ele>
        <time>2012-05-20T13:00:51Z</time>
      </trkpt>
      <trkpt lat="44.74055" lon="3.8567">
        <ele>949.851</ele>
        <time>2012-05-20T13:01:09Z</time>
      </trkpt>
      <trkpt lat="44.74042" lon="3.85658">
        <ele>946.826</ele>
        <time>2012-05-20T13:01:22Z</time>
      </trkpt>
      <trkpt lat="44.74023" lon="3.85655">
        <ele>944.689</ele>
        <time>2012-05-20T13:01:39Z</time>
      </trkpt>
      <trkpt lat="44.73992" lon="3.85671">
        <ele>942.016</ele>
        <time>2012-05-20T13:02:05Z</time>
      </trkpt>
      <trkpt lat="44.73964" lon="3.85689">
        <ele>939.896</ele>
        <time>2012-05-20T13:02:30Z</time>
      </trkpt>
      <trkpt lat="44.73948" lon="3.85706">
        <ele>936.652</ele>
        <time>2012-05-20T13:02:47Z</time>
      </trkpt>
      <trkpt lat="44.73932" lon="3.85724">
        <ele>933.45</ele>
        <time>2012-05-20T13:03:04Z</time>
      </trkpt>
      <trkpt lat="44.73914" lon="3.8574">
        <ele>930.28</ele>
        <time>2012-05-20T13:03:22Z</time>
      </trkpt>
      <trkpt lat="44.73895" lon="3.85745">
        <ele>927.138</ele>
        <time>2012-05-20T13:03:38Z</time>
      </trkpt>
      <trkpt lat="44.73869" lon="3.85742">
        <ele>923.928</ele>
        <time>2012-05-20T13:03:59Z</time>
      </trkpt>
      <trkpt lat="44.73846" lon="3.85734">
        <ele>920.515</ele>
        <time>2012-05-20T13:04:20Z</time>
      </trkpt>
      <trkpt lat="44.73834" lon="3.85729">
        <ele>919.181</ele>
        <time>2012-05-20T13:04:30Z</time>
      </trkpt>
      <trkpt lat="44.7381" lon="3.85724">
        <ele>916.818</ele>
        <time>2012-05-20T13:04:52Z</time>
      </trkpt>
      <trkpt lat="44.73784" lon="3.85717">
        <ele>913.739</ele>
        <time>2012-05-20T13:05:15Z</time>
      </trkpt>
      <trkpt lat="44.73759" lon="3.85711">
        <ele>911.864</ele>
        <time>2012-05-20T13:05:36Z</time>
      </trkpt>
      <trkpt lat="44.73733" lon="3.85704">
        <ele>910.791</ele>
        <time>2012-05-20T13:05:59Z</time>
      </trkpt>
      <trkpt lat="44.7372" lon="3.85712">
        <ele>911.35</ele>
        <time>2012-05-20T13:06:12Z</time>
      </trkpt>
      <trkpt lat="44.73711" lon="3.8574">
        <ele>912.461</ele>
        <time>2012-05-20T13:06:31Z</time>
      </trkpt>
      <trkpt lat="44.73708" lon="3.85741">
        <ele>912.575</ele>
        <time>2012-05-20T13:06:46Z</time>
      </trkpt>
      <trkpt lat="44.73697" lon="3.85743">
        <ele>912.476</ele>
        <time>2012-05-20T13:07:10Z</time>
      </trkpt>
      <trkpt lat="44.73676" lon="3.85748">
        <ele>912.275</ele>
        <time>2012-05-20T13:07:27Z</time>
      </trkpt>
      <trkpt lat="44.73655" lon="3.85748">
        <ele>912.235</ele>
        <time>2012-05-20T13:07:45Z</time>
      </trkpt>
      <trkpt lat="44.73635" lon="3.85759">
        <ele>912.007</ele>
        <time>2012-05-20T13:08:02Z</time>
      </trkpt>
      <trkpt lat="44.73612" lon="3.85775">
        <ele>911.807</ele>
        <time>2012-05-20T13:08:23Z</time>
      </trkpt>
      <trkpt lat="44.73595" lon="3.85798">
        <ele>911.573</ele>
        <time>2012-05-20T13:08:42Z</time>
      </trkpt>
      <trkpt lat="44.73579" lon="3.85814">
        <ele>911.701</ele>
        <time>2012-05-20T13:09:00Z</time>
      </trkpt>
      <trkpt lat="44.73569" lon="3.85815">
        <ele>910.897</ele>
        <time>2012-05-20T13:09:09Z</time>
      </trkpt>
      <trkpt lat="44.73551" lon="3.85829">
        <ele>911.076</ele>
        <time>2012-05-20T13:09:27Z</time>
      </trkpt>
      <trkpt lat="44.73547" lon="3.85832">
        <ele>911.136</ele>
        <time>2012-05-20T13:09:32Z</time>
      </trkpt>
      <trkpt lat="44.73541" lon="3.85832">
        <ele>910.799</ele>
        <time>2012-05-20T13:09:37Z</time>
      </trkpt>
      <trkpt lat="44.73537" lon="3.85831">
        <ele>910.983</ele>
        <time>2012-05-20T13:09:40Z</time>
      </trkpt>
      <trkpt lat="44.73534" lon="3.85835">
        <ele>911.13</ele>
        <time>2012-05-20T13:09:44Z</time>
      </trkpt>
      <trkpt lat="44.73531" lon="3.85836">
        <ele>910.878</ele>
        <time>2012-05-20T13:09:48Z</time>
      </trkpt>
      <trkpt lat="44.7351" lon="3.8581">
        <ele>910.931</ele>
        <time>2012-05-20T13:10:07Z</time>
      </trkpt>
      <trkpt lat="44.73487" lon="3.85765">
        <ele>911.597</ele>
        <time>2012-05-20T13:10:37Z</time>
      </trkpt>
      <trkpt lat="44.73468" lon="3.85726">
        <ele>911.346</ele>
        <time>2012-05-20T13:11:03Z</time>
      </trkpt>
      <trkpt lat="44.73463" lon="3.85719">
        <ele>911.08</ele>
        <time>2012-05-20T13:11:09Z</time>
      </trkpt>
      <trkpt lat="44.73448" lon="3.85705">
        <ele>911.094</ele>
        <time>2012-05-20T13:11:23Z</time>
      </trkpt>
      <trkpt lat="44.73427" lon="3.85701">
        <ele>911.491</ele>
        <time>2012-05-20T13:11:39Z</time>
      </trkpt>
      <trkpt lat="44.73424" lon="3.85703">
        <ele>911.721</ele>
        <time>2012-05-20T13:11:59Z</time>
      </trkpt>
      <trkpt lat="44.73417" lon="3.85713">
        <ele>911.407</ele>
        <time>2012-05-20T13:12:06Z</time>
      </trkpt>
      <trkpt lat="44.734" lon="3.85717">
        <ele>911.331</ele>
        <time>2012-05-20T13:12:19Z</time>
      </trkpt>
      <trkpt lat="44.73377" lon="3.85731">
        <ele>911.095</ele>
        <time>2012-05-20T13:12:37Z</time>
      </trkpt>
      <trkpt lat="44.73362" lon="3.85745">
        <ele>911.391</ele>
        <time>2012-05-20T13:12:51Z</time>
      </trkpt>
      <trkpt lat="44.73353" lon="3.85755">
        <ele>911.755</ele>
        <time>2012-05-20T13:13:26Z</time>
      </trkpt>
      <trkpt lat="44.73351" lon="3.85759">
        <ele>912.138</ele>
        <time>2012-05-20T13:15:09Z</time>
      </trkpt>
    </trkseg>
  </trk>
</gpx>